<?xml version="1.0" encoding="UTF-8" standalone="no" ?>
<gpx xmlns="http://www.topografix.com/GPX/1/1" xmlns:xsi="http://www.w3.org/2001/XMLSchema-instance" xsi:schemaLocation="http://www.topografix.com/GPX/1/1 http://www.topografix.com/GPX/1/1/gpx.xsd" version="1.1" creator="VisuGPX - https://www.visugpx.com">
  <metadata>
    <name>Pic du Tourroc 1541m (65)</name>
    <desc><![CDATA[Randonnée avec le club Muret-Montagne le 10/04/11.
Par temps clair, la vue doit y être magnifique...
Ce fut une excellente journée malgré le froid et le brouillard!]]></desc>
  </metadata>
  <trk>
    <name><![CDATA[ACTIVE LOG084623]]></name>
    <trkseg>
      <trkpt lat="42.98767" lon="0.56396">
        <ele>588.709</ele>
        <time>2011-04-10T06:46:20Z</time>
      </trkpt>
      <trkpt lat="42.98767" lon="0.56396">
        <ele>588.709</ele>
        <time>2011-04-10T06:46:21Z</time>
      </trkpt>
      <trkpt lat="42.98767" lon="0.56396">
        <ele>588.933</ele>
        <time>2011-04-10T06:46:24Z</time>
      </trkpt>
      <trkpt lat="42.98767" lon="0.56395">
        <ele>590.279</ele>
        <time>2011-04-10T06:46:28Z</time>
      </trkpt>
      <trkpt lat="42.98767" lon="0.56395">
        <ele>593.453</ele>
        <time>2011-04-10T06:46:44Z</time>
      </trkpt>
      <trkpt lat="42.98767" lon="0.56394">
        <ele>596.612</ele>
        <time>2011-04-10T06:47:01Z</time>
      </trkpt>
      <trkpt lat="42.98767" lon="0.56395">
        <ele>598.411</ele>
        <time>2011-04-10T06:47:36Z</time>
      </trkpt>
      <trkpt lat="42.9877" lon="0.56398">
        <ele>598.901</ele>
        <time>2011-04-10T06:47:37Z</time>
      </trkpt>
      <trkpt lat="42.98769" lon="0.56395">
        <ele>598.048</ele>
        <time>2011-04-10T06:47:50Z</time>
      </trkpt>
      <trkpt lat="42.98769" lon="0.56395">
        <ele>598.012</ele>
        <time>2011-04-10T06:48:26Z</time>
      </trkpt>
      <trkpt lat="42.98768" lon="0.56393">
        <ele>598.932</ele>
        <time>2011-04-10T06:49:03Z</time>
      </trkpt>
      <trkpt lat="42.9877" lon="0.56386">
        <ele>599.143</ele>
        <time>2011-04-10T06:49:24Z</time>
      </trkpt>
      <trkpt lat="42.98768" lon="0.56381">
        <ele>599.611</ele>
        <time>2011-04-10T06:49:45Z</time>
      </trkpt>
      <trkpt lat="42.98766" lon="0.56382">
        <ele>599.635</ele>
        <time>2011-04-10T06:50:13Z</time>
      </trkpt>
      <trkpt lat="42.98759" lon="0.56376">
        <ele>599.974</ele>
        <time>2011-04-10T06:50:28Z</time>
      </trkpt>
      <trkpt lat="42.98757" lon="0.56376">
        <ele>599.801</ele>
        <time>2011-04-10T06:50:47Z</time>
      </trkpt>
      <trkpt lat="42.98758" lon="0.56379">
        <ele>599.617</ele>
        <time>2011-04-10T06:51:08Z</time>
      </trkpt>
      <trkpt lat="42.98751" lon="0.56368">
        <ele>600.773</ele>
        <time>2011-04-10T06:51:19Z</time>
      </trkpt>
      <trkpt lat="42.98744" lon="0.56354">
        <ele>600.944</ele>
        <time>2011-04-10T06:51:34Z</time>
      </trkpt>
      <trkpt lat="42.98733" lon="0.56334">
        <ele>598.856</ele>
        <time>2011-04-10T06:51:53Z</time>
      </trkpt>
      <trkpt lat="42.98722" lon="0.56306">
        <ele>601.178</ele>
        <time>2011-04-10T06:52:14Z</time>
      </trkpt>
      <trkpt lat="42.98721" lon="0.56298">
        <ele>601.887</ele>
        <time>2011-04-10T06:52:21Z</time>
      </trkpt>
      <trkpt lat="42.98723" lon="0.56285">
        <ele>601.963</ele>
        <time>2011-04-10T06:52:37Z</time>
      </trkpt>
      <trkpt lat="42.98723" lon="0.56285">
        <ele>602.263</ele>
        <time>2011-04-10T06:52:57Z</time>
      </trkpt>
      <trkpt lat="42.98724" lon="0.56287">
        <ele>601.996</ele>
        <time>2011-04-10T06:53:30Z</time>
      </trkpt>
      <trkpt lat="42.98723" lon="0.56292">
        <ele>602.161</ele>
        <time>2011-04-10T06:53:48Z</time>
      </trkpt>
      <trkpt lat="42.98721" lon="0.56298">
        <ele>601.925</ele>
        <time>2011-04-10T06:53:59Z</time>
      </trkpt>
      <trkpt lat="42.98721" lon="0.56306">
        <ele>601.611</ele>
        <time>2011-04-10T06:54:13Z</time>
      </trkpt>
      <trkpt lat="42.98714" lon="0.56313">
        <ele>601.149</ele>
        <time>2011-04-10T06:54:22Z</time>
      </trkpt>
      <trkpt lat="42.98695" lon="0.56304">
        <ele>599.82</ele>
        <time>2011-04-10T06:54:39Z</time>
      </trkpt>
      <trkpt lat="42.98676" lon="0.56304">
        <ele>600.498</ele>
        <time>2011-04-10T06:54:56Z</time>
      </trkpt>
      <trkpt lat="42.98659" lon="0.56305">
        <ele>602.702</ele>
        <time>2011-04-10T06:55:13Z</time>
      </trkpt>
      <trkpt lat="42.98635" lon="0.56301">
        <ele>604.648</ele>
        <time>2011-04-10T06:55:37Z</time>
      </trkpt>
      <trkpt lat="42.98622" lon="0.56301">
        <ele>605.03</ele>
        <time>2011-04-10T06:55:57Z</time>
      </trkpt>
      <trkpt lat="42.98608" lon="0.563">
        <ele>604.591</ele>
        <time>2011-04-10T06:56:12Z</time>
      </trkpt>
      <trkpt lat="42.98607" lon="0.56298">
        <ele>604.864</ele>
        <time>2011-04-10T06:56:25Z</time>
      </trkpt>
      <trkpt lat="42.98599" lon="0.56294">
        <ele>605.421</ele>
        <time>2011-04-10T06:56:41Z</time>
      </trkpt>
      <trkpt lat="42.98579" lon="0.56295">
        <ele>605.365</ele>
        <time>2011-04-10T06:57:00Z</time>
      </trkpt>
      <trkpt lat="42.98563" lon="0.56297">
        <ele>606.197</ele>
        <time>2011-04-10T06:57:17Z</time>
      </trkpt>
      <trkpt lat="42.98545" lon="0.56305">
        <ele>607.054</ele>
        <time>2011-04-10T06:57:34Z</time>
      </trkpt>
      <trkpt lat="42.98543" lon="0.56305">
        <ele>607.284</ele>
        <time>2011-04-10T06:57:36Z</time>
      </trkpt>
      <trkpt lat="42.98532" lon="0.56303">
        <ele>608.25</ele>
        <time>2011-04-10T06:57:48Z</time>
      </trkpt>
      <trkpt lat="42.98515" lon="0.56301">
        <ele>609.789</ele>
        <time>2011-04-10T06:58:05Z</time>
      </trkpt>
      <trkpt lat="42.98497" lon="0.56295">
        <ele>611.504</ele>
        <time>2011-04-10T06:58:25Z</time>
      </trkpt>
      <trkpt lat="42.98488" lon="0.56293">
        <ele>611.603</ele>
        <time>2011-04-10T06:58:34Z</time>
      </trkpt>
      <trkpt lat="42.98486" lon="0.56294">
        <ele>611.749</ele>
        <time>2011-04-10T06:58:36Z</time>
      </trkpt>
      <trkpt lat="42.98471" lon="0.5629">
        <ele>612.336</ele>
        <time>2011-04-10T06:58:50Z</time>
      </trkpt>
      <trkpt lat="42.98455" lon="0.56304">
        <ele>613.092</ele>
        <time>2011-04-10T06:59:08Z</time>
      </trkpt>
      <trkpt lat="42.9844" lon="0.56318">
        <ele>614.087</ele>
        <time>2011-04-10T06:59:26Z</time>
      </trkpt>
      <trkpt lat="42.98423" lon="0.56328">
        <ele>615.312</ele>
        <time>2011-04-10T06:59:43Z</time>
      </trkpt>
      <trkpt lat="42.984" lon="0.56344">
        <ele>615.95</ele>
        <time>2011-04-10T07:00:07Z</time>
      </trkpt>
      <trkpt lat="42.98383" lon="0.56358">
        <ele>616.138</ele>
        <time>2011-04-10T07:00:26Z</time>
      </trkpt>
      <trkpt lat="42.98358" lon="0.56364">
        <ele>616.36</ele>
        <time>2011-04-10T07:00:50Z</time>
      </trkpt>
      <trkpt lat="42.98338" lon="0.56382">
        <ele>616.918</ele>
        <time>2011-04-10T07:01:11Z</time>
      </trkpt>
      <trkpt lat="42.98324" lon="0.56397">
        <ele>617.797</ele>
        <time>2011-04-10T07:01:28Z</time>
      </trkpt>
      <trkpt lat="42.98323" lon="0.56396">
        <ele>617.647</ele>
        <time>2011-04-10T07:01:29Z</time>
      </trkpt>
      <trkpt lat="42.98319" lon="0.56393">
        <ele>617.843</ele>
        <time>2011-04-10T07:01:44Z</time>
      </trkpt>
      <trkpt lat="42.98322" lon="0.56395">
        <ele>618.042</ele>
        <time>2011-04-10T07:02:07Z</time>
      </trkpt>
      <trkpt lat="42.98319" lon="0.56394">
        <ele>618.699</ele>
        <time>2011-04-10T07:02:28Z</time>
      </trkpt>
      <trkpt lat="42.98318" lon="0.56394">
        <ele>616.563</ele>
        <time>2011-04-10T07:02:59Z</time>
      </trkpt>
      <trkpt lat="42.98311" lon="0.56401">
        <ele>617.268</ele>
        <time>2011-04-10T07:03:20Z</time>
      </trkpt>
      <trkpt lat="42.98304" lon="0.56405">
        <ele>616.19</ele>
        <time>2011-04-10T07:03:31Z</time>
      </trkpt>
      <trkpt lat="42.98282" lon="0.56431">
        <ele>614.565</ele>
        <time>2011-04-10T07:03:54Z</time>
      </trkpt>
      <trkpt lat="42.98257" lon="0.56419">
        <ele>615.147</ele>
        <time>2011-04-10T07:04:17Z</time>
      </trkpt>
      <trkpt lat="42.98244" lon="0.56416">
        <ele>617.251</ele>
        <time>2011-04-10T07:04:41Z</time>
      </trkpt>
      <trkpt lat="42.98245" lon="0.56392">
        <ele>618.682</ele>
        <time>2011-04-10T07:05:05Z</time>
      </trkpt>
      <trkpt lat="42.98263" lon="0.56351">
        <ele>620.047</ele>
        <time>2011-04-10T07:05:34Z</time>
      </trkpt>
      <trkpt lat="42.98268" lon="0.56304">
        <ele>622.887</ele>
        <time>2011-04-10T07:06:13Z</time>
      </trkpt>
      <trkpt lat="42.98265" lon="0.56276">
        <ele>624.343</ele>
        <time>2011-04-10T07:06:38Z</time>
      </trkpt>
      <trkpt lat="42.98257" lon="0.56257">
        <ele>627.35</ele>
        <time>2011-04-10T07:07:08Z</time>
      </trkpt>
      <trkpt lat="42.98254" lon="0.56234">
        <ele>630.641</ele>
        <time>2011-04-10T07:07:32Z</time>
      </trkpt>
      <trkpt lat="42.98248" lon="0.56213">
        <ele>633.817</ele>
        <time>2011-04-10T07:07:59Z</time>
      </trkpt>
      <trkpt lat="42.98252" lon="0.56189">
        <ele>634.121</ele>
        <time>2011-04-10T07:08:25Z</time>
      </trkpt>
      <trkpt lat="42.98264" lon="0.56155">
        <ele>635.587</ele>
        <time>2011-04-10T07:08:54Z</time>
      </trkpt>
      <trkpt lat="42.98275" lon="0.56127">
        <ele>638.645</ele>
        <time>2011-04-10T07:09:23Z</time>
      </trkpt>
      <trkpt lat="42.98283" lon="0.56103">
        <ele>640.234</ele>
        <time>2011-04-10T07:09:48Z</time>
      </trkpt>
      <trkpt lat="42.98289" lon="0.56078">
        <ele>643.274</ele>
        <time>2011-04-10T07:10:15Z</time>
      </trkpt>
      <trkpt lat="42.98291" lon="0.56056">
        <ele>645.196</ele>
        <time>2011-04-10T07:10:44Z</time>
      </trkpt>
      <trkpt lat="42.98288" lon="0.56045">
        <ele>648.225</ele>
        <time>2011-04-10T07:11:06Z</time>
      </trkpt>
      <trkpt lat="42.98286" lon="0.56043">
        <ele>647.832</ele>
        <time>2011-04-10T07:11:37Z</time>
      </trkpt>
      <trkpt lat="42.98281" lon="0.5604">
        <ele>648.109</ele>
        <time>2011-04-10T07:12:11Z</time>
      </trkpt>
      <trkpt lat="42.98279" lon="0.56037">
        <ele>648.116</ele>
        <time>2011-04-10T07:12:47Z</time>
      </trkpt>
      <trkpt lat="42.98279" lon="0.56036">
        <ele>648.168</ele>
        <time>2011-04-10T07:13:22Z</time>
      </trkpt>
      <trkpt lat="42.98281" lon="0.56037">
        <ele>648.443</ele>
        <time>2011-04-10T07:13:54Z</time>
      </trkpt>
      <trkpt lat="42.98293" lon="0.56031">
        <ele>650.334</ele>
        <time>2011-04-10T07:14:24Z</time>
      </trkpt>
      <trkpt lat="42.98291" lon="0.56012">
        <ele>653.457</ele>
        <time>2011-04-10T07:14:49Z</time>
      </trkpt>
      <trkpt lat="42.98295" lon="0.55992">
        <ele>656.518</ele>
        <time>2011-04-10T07:15:10Z</time>
      </trkpt>
      <trkpt lat="42.98306" lon="0.55973">
        <ele>659.862</ele>
        <time>2011-04-10T07:15:34Z</time>
      </trkpt>
      <trkpt lat="42.98315" lon="0.55958">
        <ele>662.6</ele>
        <time>2011-04-10T07:15:58Z</time>
      </trkpt>
      <trkpt lat="42.98319" lon="0.5595">
        <ele>665.78</ele>
        <time>2011-04-10T07:16:18Z</time>
      </trkpt>
      <trkpt lat="42.98322" lon="0.55927">
        <ele>668.942</ele>
        <time>2011-04-10T07:16:43Z</time>
      </trkpt>
      <trkpt lat="42.98325" lon="0.55912">
        <ele>671.991</ele>
        <time>2011-04-10T07:17:02Z</time>
      </trkpt>
      <trkpt lat="42.98323" lon="0.55898">
        <ele>675.333</ele>
        <time>2011-04-10T07:17:24Z</time>
      </trkpt>
      <trkpt lat="42.98315" lon="0.55902">
        <ele>677.716</ele>
        <time>2011-04-10T07:17:52Z</time>
      </trkpt>
      <trkpt lat="42.98303" lon="0.55918">
        <ele>679.028</ele>
        <time>2011-04-10T07:18:11Z</time>
      </trkpt>
      <trkpt lat="42.98289" lon="0.55931">
        <ele>681.232</ele>
        <time>2011-04-10T07:18:32Z</time>
      </trkpt>
      <trkpt lat="42.98275" lon="0.55953">
        <ele>684.015</ele>
        <time>2011-04-10T07:18:58Z</time>
      </trkpt>
      <trkpt lat="42.9826" lon="0.5597">
        <ele>686.29</ele>
        <time>2011-04-10T07:19:21Z</time>
      </trkpt>
      <trkpt lat="42.98248" lon="0.5599">
        <ele>687.234</ele>
        <time>2011-04-10T07:19:43Z</time>
      </trkpt>
      <trkpt lat="42.98237" lon="0.5601">
        <ele>688.628</ele>
        <time>2011-04-10T07:20:06Z</time>
      </trkpt>
      <trkpt lat="42.98225" lon="0.56019">
        <ele>690.864</ele>
        <time>2011-04-10T07:20:25Z</time>
      </trkpt>
      <trkpt lat="42.98216" lon="0.5603">
        <ele>692.048</ele>
        <time>2011-04-10T07:20:43Z</time>
      </trkpt>
      <trkpt lat="42.98212" lon="0.56036">
        <ele>694.18</ele>
        <time>2011-04-10T07:20:53Z</time>
      </trkpt>
      <trkpt lat="42.98204" lon="0.56055">
        <ele>695.532</ele>
        <time>2011-04-10T07:21:12Z</time>
      </trkpt>
      <trkpt lat="42.9819" lon="0.56068">
        <ele>697.245</ele>
        <time>2011-04-10T07:21:33Z</time>
      </trkpt>
      <trkpt lat="42.98178" lon="0.56083">
        <ele>699.334</ele>
        <time>2011-04-10T07:21:57Z</time>
      </trkpt>
      <trkpt lat="42.9817" lon="0.5609">
        <ele>701.111</ele>
        <time>2011-04-10T07:22:13Z</time>
      </trkpt>
      <trkpt lat="42.98156" lon="0.56102">
        <ele>704.002</ele>
        <time>2011-04-10T07:22:34Z</time>
      </trkpt>
      <trkpt lat="42.98148" lon="0.56105">
        <ele>706.266</ele>
        <time>2011-04-10T07:22:51Z</time>
      </trkpt>
      <trkpt lat="42.9814" lon="0.56111">
        <ele>708.665</ele>
        <time>2011-04-10T07:23:07Z</time>
      </trkpt>
      <trkpt lat="42.98129" lon="0.56118">
        <ele>710.549</ele>
        <time>2011-04-10T07:23:25Z</time>
      </trkpt>
      <trkpt lat="42.98118" lon="0.56126">
        <ele>713.273</ele>
        <time>2011-04-10T07:23:45Z</time>
      </trkpt>
      <trkpt lat="42.98111" lon="0.56135">
        <ele>716.321</ele>
        <time>2011-04-10T07:24:08Z</time>
      </trkpt>
      <trkpt lat="42.98101" lon="0.5614">
        <ele>719.421</ele>
        <time>2011-04-10T07:24:27Z</time>
      </trkpt>
      <trkpt lat="42.98098" lon="0.56143">
        <ele>721.536</ele>
        <time>2011-04-10T07:24:44Z</time>
      </trkpt>
      <trkpt lat="42.98091" lon="0.56149">
        <ele>723.261</ele>
        <time>2011-04-10T07:25:06Z</time>
      </trkpt>
      <trkpt lat="42.98084" lon="0.56156">
        <ele>725.254</ele>
        <time>2011-04-10T07:25:31Z</time>
      </trkpt>
      <trkpt lat="42.98077" lon="0.56165">
        <ele>727.163</ele>
        <time>2011-04-10T07:25:54Z</time>
      </trkpt>
      <trkpt lat="42.98066" lon="0.56173">
        <ele>729.763</ele>
        <time>2011-04-10T07:26:14Z</time>
      </trkpt>
      <trkpt lat="42.98055" lon="0.56193">
        <ele>733.108</ele>
        <time>2011-04-10T07:26:36Z</time>
      </trkpt>
      <trkpt lat="42.98047" lon="0.56203">
        <ele>734.863</ele>
        <time>2011-04-10T07:26:57Z</time>
      </trkpt>
      <trkpt lat="42.98035" lon="0.56211">
        <ele>737.181</ele>
        <time>2011-04-10T07:27:14Z</time>
      </trkpt>
      <trkpt lat="42.98026" lon="0.56219">
        <ele>740.296</ele>
        <time>2011-04-10T07:27:35Z</time>
      </trkpt>
      <trkpt lat="42.98022" lon="0.56226">
        <ele>742.519</ele>
        <time>2011-04-10T07:27:53Z</time>
      </trkpt>
      <trkpt lat="42.98018" lon="0.56214">
        <ele>745.7</ele>
        <time>2011-04-10T07:28:15Z</time>
      </trkpt>
      <trkpt lat="42.98023" lon="0.56201">
        <ele>747.961</ele>
        <time>2011-04-10T07:28:38Z</time>
      </trkpt>
      <trkpt lat="42.98028" lon="0.56177">
        <ele>751.099</ele>
        <time>2011-04-10T07:29:02Z</time>
      </trkpt>
      <trkpt lat="42.98023" lon="0.56163">
        <ele>753.541</ele>
        <time>2011-04-10T07:29:20Z</time>
      </trkpt>
      <trkpt lat="42.98023" lon="0.56146">
        <ele>756.551</ele>
        <time>2011-04-10T07:29:46Z</time>
      </trkpt>
      <trkpt lat="42.98024" lon="0.56132">
        <ele>759.652</ele>
        <time>2011-04-10T07:30:07Z</time>
      </trkpt>
      <trkpt lat="42.9802" lon="0.56117">
        <ele>762.74</ele>
        <time>2011-04-10T07:30:29Z</time>
      </trkpt>
      <trkpt lat="42.9802" lon="0.56098">
        <ele>765.506</ele>
        <time>2011-04-10T07:30:53Z</time>
      </trkpt>
      <trkpt lat="42.98024" lon="0.56085">
        <ele>768.875</ele>
        <time>2011-04-10T07:31:17Z</time>
      </trkpt>
      <trkpt lat="42.98024" lon="0.56078">
        <ele>772.051</ele>
        <time>2011-04-10T07:31:40Z</time>
      </trkpt>
      <trkpt lat="42.98022" lon="0.56056">
        <ele>774.965</ele>
        <time>2011-04-10T07:32:06Z</time>
      </trkpt>
      <trkpt lat="42.98027" lon="0.5604">
        <ele>778.234</ele>
        <time>2011-04-10T07:32:29Z</time>
      </trkpt>
      <trkpt lat="42.98026" lon="0.5603">
        <ele>779.096</ele>
        <time>2011-04-10T07:32:41Z</time>
      </trkpt>
      <trkpt lat="42.98025" lon="0.55996">
        <ele>782.1</ele>
        <time>2011-04-10T07:33:06Z</time>
      </trkpt>
      <trkpt lat="42.98035" lon="0.55969">
        <ele>783.505</ele>
        <time>2011-04-10T07:33:30Z</time>
      </trkpt>
      <trkpt lat="42.98044" lon="0.5594">
        <ele>784.896</ele>
        <time>2011-04-10T07:33:55Z</time>
      </trkpt>
      <trkpt lat="42.98058" lon="0.55917">
        <ele>787.198</ele>
        <time>2011-04-10T07:34:21Z</time>
      </trkpt>
      <trkpt lat="42.9807" lon="0.5589">
        <ele>790.202</ele>
        <time>2011-04-10T07:34:51Z</time>
      </trkpt>
      <trkpt lat="42.98073" lon="0.55873">
        <ele>792.801</ele>
        <time>2011-04-10T07:35:15Z</time>
      </trkpt>
      <trkpt lat="42.98082" lon="0.55872">
        <ele>794.437</ele>
        <time>2011-04-10T07:35:29Z</time>
      </trkpt>
      <trkpt lat="42.9809" lon="0.55864">
        <ele>796.489</ele>
        <time>2011-04-10T07:35:47Z</time>
      </trkpt>
      <trkpt lat="42.98092" lon="0.55846">
        <ele>798.255</ele>
        <time>2011-04-10T07:36:12Z</time>
      </trkpt>
      <trkpt lat="42.98102" lon="0.55842">
        <ele>798.304</ele>
        <time>2011-04-10T07:36:41Z</time>
      </trkpt>
      <trkpt lat="42.98106" lon="0.55841">
        <ele>798.4</ele>
        <time>2011-04-10T07:37:07Z</time>
      </trkpt>
      <trkpt lat="42.98107" lon="0.55842">
        <ele>798.927</ele>
        <time>2011-04-10T07:37:39Z</time>
      </trkpt>
      <trkpt lat="42.98109" lon="0.55843">
        <ele>798.99</ele>
        <time>2011-04-10T07:38:05Z</time>
      </trkpt>
      <trkpt lat="42.9811" lon="0.55842">
        <ele>799.406</ele>
        <time>2011-04-10T07:38:34Z</time>
      </trkpt>
      <trkpt lat="42.98109" lon="0.55841">
        <ele>799.657</ele>
        <time>2011-04-10T07:38:57Z</time>
      </trkpt>
      <trkpt lat="42.98118" lon="0.55818">
        <ele>799.828</ele>
        <time>2011-04-10T07:39:21Z</time>
      </trkpt>
      <trkpt lat="42.98112" lon="0.55825">
        <ele>801.228</ele>
        <time>2011-04-10T07:39:45Z</time>
      </trkpt>
      <trkpt lat="42.98112" lon="0.55807">
        <ele>804.292</ele>
        <time>2011-04-10T07:40:11Z</time>
      </trkpt>
      <trkpt lat="42.98112" lon="0.55792">
        <ele>806.516</ele>
        <time>2011-04-10T07:40:30Z</time>
      </trkpt>
      <trkpt lat="42.98112" lon="0.55773">
        <ele>809.53</ele>
        <time>2011-04-10T07:40:49Z</time>
      </trkpt>
      <trkpt lat="42.98114" lon="0.55763">
        <ele>811.992</ele>
        <time>2011-04-10T07:41:11Z</time>
      </trkpt>
      <trkpt lat="42.98115" lon="0.55756">
        <ele>815.404</ele>
        <time>2011-04-10T07:41:37Z</time>
      </trkpt>
      <trkpt lat="42.9812" lon="0.55733">
        <ele>817.82</ele>
        <time>2011-04-10T07:41:54Z</time>
      </trkpt>
      <trkpt lat="42.98125" lon="0.55716">
        <ele>820.714</ele>
        <time>2011-04-10T07:42:18Z</time>
      </trkpt>
      <trkpt lat="42.9813" lon="0.55702">
        <ele>823.943</ele>
        <time>2011-04-10T07:42:40Z</time>
      </trkpt>
      <trkpt lat="42.98137" lon="0.5568">
        <ele>826.967</ele>
        <time>2011-04-10T07:43:03Z</time>
      </trkpt>
      <trkpt lat="42.9814" lon="0.55658">
        <ele>829.436</ele>
        <time>2011-04-10T07:43:25Z</time>
      </trkpt>
      <trkpt lat="42.98143" lon="0.5564">
        <ele>832.489</ele>
        <time>2011-04-10T07:43:51Z</time>
      </trkpt>
      <trkpt lat="42.98148" lon="0.55626">
        <ele>834.773</ele>
        <time>2011-04-10T07:44:13Z</time>
      </trkpt>
      <trkpt lat="42.98156" lon="0.55614">
        <ele>837.525</ele>
        <time>2011-04-10T07:44:36Z</time>
      </trkpt>
      <trkpt lat="42.98159" lon="0.55608">
        <ele>840.301</ele>
        <time>2011-04-10T07:45:00Z</time>
      </trkpt>
      <trkpt lat="42.98164" lon="0.55599">
        <ele>843.313</ele>
        <time>2011-04-10T07:45:20Z</time>
      </trkpt>
      <trkpt lat="42.98165" lon="0.55582">
        <ele>845.988</ele>
        <time>2011-04-10T07:45:41Z</time>
      </trkpt>
      <trkpt lat="42.9817" lon="0.55567">
        <ele>848.432</ele>
        <time>2011-04-10T07:46:05Z</time>
      </trkpt>
      <trkpt lat="42.98173" lon="0.5555">
        <ele>851.005</ele>
        <time>2011-04-10T07:46:27Z</time>
      </trkpt>
      <trkpt lat="42.98175" lon="0.55536">
        <ele>853.635</ele>
        <time>2011-04-10T07:46:45Z</time>
      </trkpt>
      <trkpt lat="42.98178" lon="0.55518">
        <ele>855.99</ele>
        <time>2011-04-10T07:47:09Z</time>
      </trkpt>
      <trkpt lat="42.98181" lon="0.55506">
        <ele>857.974</ele>
        <time>2011-04-10T07:47:26Z</time>
      </trkpt>
      <trkpt lat="42.98183" lon="0.5549">
        <ele>858.659</ele>
        <time>2011-04-10T07:47:45Z</time>
      </trkpt>
      <trkpt lat="42.98186" lon="0.55491">
        <ele>860.406</ele>
        <time>2011-04-10T07:48:13Z</time>
      </trkpt>
      <trkpt lat="42.98188" lon="0.55488">
        <ele>860.731</ele>
        <time>2011-04-10T07:48:40Z</time>
      </trkpt>
      <trkpt lat="42.9819" lon="0.55486">
        <ele>860.526</ele>
        <time>2011-04-10T07:49:04Z</time>
      </trkpt>
      <trkpt lat="42.98191" lon="0.55488">
        <ele>861.076</ele>
        <time>2011-04-10T07:49:30Z</time>
      </trkpt>
      <trkpt lat="42.98193" lon="0.55493">
        <ele>861.171</ele>
        <time>2011-04-10T07:49:57Z</time>
      </trkpt>
      <trkpt lat="42.98196" lon="0.55492">
        <ele>862.679</ele>
        <time>2011-04-10T07:50:22Z</time>
      </trkpt>
      <trkpt lat="42.98198" lon="0.55485">
        <ele>863.742</ele>
        <time>2011-04-10T07:50:28Z</time>
      </trkpt>
      <trkpt lat="42.98197" lon="0.55489">
        <ele>863.815</ele>
        <time>2011-04-10T07:50:30Z</time>
      </trkpt>
      <trkpt lat="42.98202" lon="0.5548">
        <ele>865.04</ele>
        <time>2011-04-10T07:50:41Z</time>
      </trkpt>
      <trkpt lat="42.98207" lon="0.5547">
        <ele>868.3</ele>
        <time>2011-04-10T07:51:06Z</time>
      </trkpt>
      <trkpt lat="42.98208" lon="0.5546">
        <ele>870.985</ele>
        <time>2011-04-10T07:51:32Z</time>
      </trkpt>
      <trkpt lat="42.98208" lon="0.55443">
        <ele>873.44</ele>
        <time>2011-04-10T07:51:48Z</time>
      </trkpt>
      <trkpt lat="42.98213" lon="0.55428">
        <ele>875.586</ele>
        <time>2011-04-10T07:52:10Z</time>
      </trkpt>
      <trkpt lat="42.98218" lon="0.55417">
        <ele>878.806</ele>
        <time>2011-04-10T07:52:34Z</time>
      </trkpt>
      <trkpt lat="42.98226" lon="0.5541">
        <ele>881.859</ele>
        <time>2011-04-10T07:52:55Z</time>
      </trkpt>
      <trkpt lat="42.9823" lon="0.55396">
        <ele>884.729</ele>
        <time>2011-04-10T07:53:18Z</time>
      </trkpt>
      <trkpt lat="42.98237" lon="0.55384">
        <ele>887.134</ele>
        <time>2011-04-10T07:53:42Z</time>
      </trkpt>
      <trkpt lat="42.98244" lon="0.55371">
        <ele>890.049</ele>
        <time>2011-04-10T07:54:04Z</time>
      </trkpt>
      <trkpt lat="42.98252" lon="0.55365">
        <ele>893.205</ele>
        <time>2011-04-10T07:54:26Z</time>
      </trkpt>
      <trkpt lat="42.98255" lon="0.55355">
        <ele>895.829</ele>
        <time>2011-04-10T07:54:48Z</time>
      </trkpt>
      <trkpt lat="42.98258" lon="0.55342">
        <ele>898.501</ele>
        <time>2011-04-10T07:55:11Z</time>
      </trkpt>
      <trkpt lat="42.98262" lon="0.55331">
        <ele>901.682</ele>
        <time>2011-04-10T07:55:32Z</time>
      </trkpt>
      <trkpt lat="42.98265" lon="0.5532">
        <ele>904.069</ele>
        <time>2011-04-10T07:55:56Z</time>
      </trkpt>
      <trkpt lat="42.98272" lon="0.55311">
        <ele>907.482</ele>
        <time>2011-04-10T07:56:17Z</time>
      </trkpt>
      <trkpt lat="42.98276" lon="0.55297">
        <ele>910.062</ele>
        <time>2011-04-10T07:56:39Z</time>
      </trkpt>
      <trkpt lat="42.98281" lon="0.55286">
        <ele>913.067</ele>
        <time>2011-04-10T07:57:01Z</time>
      </trkpt>
      <trkpt lat="42.98286" lon="0.5527">
        <ele>916.149</ele>
        <time>2011-04-10T07:57:24Z</time>
      </trkpt>
      <trkpt lat="42.98291" lon="0.55262">
        <ele>918.324</ele>
        <time>2011-04-10T07:57:42Z</time>
      </trkpt>
      <trkpt lat="42.98294" lon="0.55258">
        <ele>919.863</ele>
        <time>2011-04-10T07:58:03Z</time>
      </trkpt>
      <trkpt lat="42.98296" lon="0.55253">
        <ele>921.71</ele>
        <time>2011-04-10T07:58:24Z</time>
      </trkpt>
      <trkpt lat="42.98301" lon="0.55242">
        <ele>924.764</ele>
        <time>2011-04-10T07:58:47Z</time>
      </trkpt>
      <trkpt lat="42.98308" lon="0.55225">
        <ele>927.289</ele>
        <time>2011-04-10T07:59:07Z</time>
      </trkpt>
      <trkpt lat="42.98307" lon="0.55217">
        <ele>929.14</ele>
        <time>2011-04-10T07:59:23Z</time>
      </trkpt>
      <trkpt lat="42.9831" lon="0.55209">
        <ele>931.019</ele>
        <time>2011-04-10T07:59:48Z</time>
      </trkpt>
      <trkpt lat="42.98326" lon="0.552">
        <ele>933.639</ele>
        <time>2011-04-10T08:00:12Z</time>
      </trkpt>
      <trkpt lat="42.98337" lon="0.55186">
        <ele>935.247</ele>
        <time>2011-04-10T08:00:34Z</time>
      </trkpt>
      <trkpt lat="42.98347" lon="0.55172">
        <ele>938.221</ele>
        <time>2011-04-10T08:00:56Z</time>
      </trkpt>
      <trkpt lat="42.98357" lon="0.55171">
        <ele>940.209</ele>
        <time>2011-04-10T08:01:14Z</time>
      </trkpt>
      <trkpt lat="42.98363" lon="0.55168">
        <ele>941.382</ele>
        <time>2011-04-10T08:01:34Z</time>
      </trkpt>
      <trkpt lat="42.98373" lon="0.5516">
        <ele>944.458</ele>
        <time>2011-04-10T08:01:52Z</time>
      </trkpt>
      <trkpt lat="42.98381" lon="0.55144">
        <ele>946.529</ele>
        <time>2011-04-10T08:02:16Z</time>
      </trkpt>
      <trkpt lat="42.98391" lon="0.55132">
        <ele>949.531</ele>
        <time>2011-04-10T08:02:37Z</time>
      </trkpt>
      <trkpt lat="42.98402" lon="0.55119">
        <ele>952.218</ele>
        <time>2011-04-10T08:03:00Z</time>
      </trkpt>
      <trkpt lat="42.9841" lon="0.55109">
        <ele>954.759</ele>
        <time>2011-04-10T08:03:18Z</time>
      </trkpt>
      <trkpt lat="42.98412" lon="0.55092">
        <ele>957.203</ele>
        <time>2011-04-10T08:03:42Z</time>
      </trkpt>
      <trkpt lat="42.98419" lon="0.55081">
        <ele>959.408</ele>
        <time>2011-04-10T08:04:00Z</time>
      </trkpt>
      <trkpt lat="42.98423" lon="0.55067">
        <ele>961.558</ele>
        <time>2011-04-10T08:04:21Z</time>
      </trkpt>
      <trkpt lat="42.98427" lon="0.55053">
        <ele>964.122</ele>
        <time>2011-04-10T08:04:45Z</time>
      </trkpt>
      <trkpt lat="42.98426" lon="0.55037">
        <ele>967.223</ele>
        <time>2011-04-10T08:05:03Z</time>
      </trkpt>
      <trkpt lat="42.98426" lon="0.55023">
        <ele>968.93</ele>
        <time>2011-04-10T08:05:24Z</time>
      </trkpt>
      <trkpt lat="42.9843" lon="0.55019">
        <ele>971.943</ele>
        <time>2011-04-10T08:05:42Z</time>
      </trkpt>
      <trkpt lat="42.98435" lon="0.55013">
        <ele>975.025</ele>
        <time>2011-04-10T08:06:07Z</time>
      </trkpt>
      <trkpt lat="42.98444" lon="0.55003">
        <ele>977.631</ele>
        <time>2011-04-10T08:06:30Z</time>
      </trkpt>
      <trkpt lat="42.98449" lon="0.54993">
        <ele>980.663</ele>
        <time>2011-04-10T08:06:54Z</time>
      </trkpt>
      <trkpt lat="42.9846" lon="0.54973">
        <ele>983.98</ele>
        <time>2011-04-10T08:07:22Z</time>
      </trkpt>
      <trkpt lat="42.98463" lon="0.54964">
        <ele>986.599</ele>
        <time>2011-04-10T08:07:43Z</time>
      </trkpt>
      <trkpt lat="42.98471" lon="0.54952">
        <ele>989.774</ele>
        <time>2011-04-10T08:08:04Z</time>
      </trkpt>
      <trkpt lat="42.9848" lon="0.54943">
        <ele>991.448</ele>
        <time>2011-04-10T08:08:23Z</time>
      </trkpt>
      <trkpt lat="42.98484" lon="0.5493">
        <ele>994.714</ele>
        <time>2011-04-10T08:08:47Z</time>
      </trkpt>
      <trkpt lat="42.98496" lon="0.54919">
        <ele>996.41</ele>
        <time>2011-04-10T08:09:08Z</time>
      </trkpt>
      <trkpt lat="42.98498" lon="0.54911">
        <ele>998.867</ele>
        <time>2011-04-10T08:09:27Z</time>
      </trkpt>
      <trkpt lat="42.98502" lon="0.54902">
        <ele>1001.079</ele>
        <time>2011-04-10T08:09:53Z</time>
      </trkpt>
      <trkpt lat="42.98501" lon="0.549">
        <ele>1002.718</ele>
        <time>2011-04-10T08:10:11Z</time>
      </trkpt>
      <trkpt lat="42.98496" lon="0.549">
        <ele>1004.929</ele>
        <time>2011-04-10T08:10:28Z</time>
      </trkpt>
      <trkpt lat="42.98481" lon="0.549">
        <ele>1008.103</ele>
        <time>2011-04-10T08:10:53Z</time>
      </trkpt>
      <trkpt lat="42.9847" lon="0.54898">
        <ele>1009.579</ele>
        <time>2011-04-10T08:11:14Z</time>
      </trkpt>
      <trkpt lat="42.98458" lon="0.54902">
        <ele>1010.645</ele>
        <time>2011-04-10T08:11:32Z</time>
      </trkpt>
      <trkpt lat="42.98458" lon="0.54905">
        <ele>1011.323</ele>
        <time>2011-04-10T08:11:53Z</time>
      </trkpt>
      <trkpt lat="42.98455" lon="0.54903">
        <ele>1012.793</ele>
        <time>2011-04-10T08:12:14Z</time>
      </trkpt>
      <trkpt lat="42.98455" lon="0.54905">
        <ele>1013.238</ele>
        <time>2011-04-10T08:12:42Z</time>
      </trkpt>
      <trkpt lat="42.98454" lon="0.54907">
        <ele>1013.391</ele>
        <time>2011-04-10T08:13:19Z</time>
      </trkpt>
      <trkpt lat="42.98438" lon="0.54907">
        <ele>1014.733</ele>
        <time>2011-04-10T08:13:38Z</time>
      </trkpt>
      <trkpt lat="42.98417" lon="0.549">
        <ele>1016.491</ele>
        <time>2011-04-10T08:14:03Z</time>
      </trkpt>
      <trkpt lat="42.98414" lon="0.54901">
        <ele>1016.499</ele>
        <time>2011-04-10T08:14:07Z</time>
      </trkpt>
      <trkpt lat="42.98412" lon="0.54893">
        <ele>1016.871</ele>
        <time>2011-04-10T08:14:11Z</time>
      </trkpt>
      <trkpt lat="42.984" lon="0.54896">
        <ele>1018.55</ele>
        <time>2011-04-10T08:14:27Z</time>
      </trkpt>
      <trkpt lat="42.98384" lon="0.549">
        <ele>1020.196</ele>
        <time>2011-04-10T08:14:49Z</time>
      </trkpt>
      <trkpt lat="42.98375" lon="0.54898">
        <ele>1022.208</ele>
        <time>2011-04-10T08:15:08Z</time>
      </trkpt>
      <trkpt lat="42.98369" lon="0.54896">
        <ele>1024.471</ele>
        <time>2011-04-10T08:15:25Z</time>
      </trkpt>
      <trkpt lat="42.9836" lon="0.549">
        <ele>1025.7</ele>
        <time>2011-04-10T08:15:42Z</time>
      </trkpt>
      <trkpt lat="42.98351" lon="0.54916">
        <ele>1026.186</ele>
        <time>2011-04-10T08:16:00Z</time>
      </trkpt>
      <trkpt lat="42.98343" lon="0.54928">
        <ele>1027.573</ele>
        <time>2011-04-10T08:16:15Z</time>
      </trkpt>
      <trkpt lat="42.98333" lon="0.54936">
        <ele>1030.485</ele>
        <time>2011-04-10T08:16:33Z</time>
      </trkpt>
      <trkpt lat="42.98322" lon="0.54938">
        <ele>1032.776</ele>
        <time>2011-04-10T08:16:57Z</time>
      </trkpt>
      <trkpt lat="42.98312" lon="0.54953">
        <ele>1034.962</ele>
        <time>2011-04-10T08:17:20Z</time>
      </trkpt>
      <trkpt lat="42.98301" lon="0.54962">
        <ele>1037.986</ele>
        <time>2011-04-10T08:17:38Z</time>
      </trkpt>
      <trkpt lat="42.98287" lon="0.54973">
        <ele>1040.595</ele>
        <time>2011-04-10T08:18:02Z</time>
      </trkpt>
      <trkpt lat="42.98273" lon="0.54977">
        <ele>1042.853</ele>
        <time>2011-04-10T08:18:23Z</time>
      </trkpt>
      <trkpt lat="42.98257" lon="0.54979">
        <ele>1044.618</ele>
        <time>2011-04-10T08:18:45Z</time>
      </trkpt>
      <trkpt lat="42.98239" lon="0.54975">
        <ele>1046.384</ele>
        <time>2011-04-10T08:19:06Z</time>
      </trkpt>
      <trkpt lat="42.98244" lon="0.54968">
        <ele>1049.466</ele>
        <time>2011-04-10T08:19:28Z</time>
      </trkpt>
      <trkpt lat="42.98257" lon="0.54961">
        <ele>1051.648</ele>
        <time>2011-04-10T08:19:50Z</time>
      </trkpt>
      <trkpt lat="42.98267" lon="0.54946">
        <ele>1054.449</ele>
        <time>2011-04-10T08:20:14Z</time>
      </trkpt>
      <trkpt lat="42.98271" lon="0.54929">
        <ele>1057.688</ele>
        <time>2011-04-10T08:20:34Z</time>
      </trkpt>
      <trkpt lat="42.98274" lon="0.54906">
        <ele>1060.692</ele>
        <time>2011-04-10T08:21:01Z</time>
      </trkpt>
      <trkpt lat="42.98278" lon="0.54887">
        <ele>1062.906</ele>
        <time>2011-04-10T08:21:22Z</time>
      </trkpt>
      <trkpt lat="42.98281" lon="0.54868">
        <ele>1065.803</ele>
        <time>2011-04-10T08:21:45Z</time>
      </trkpt>
      <trkpt lat="42.98282" lon="0.54843">
        <ele>1068.346</ele>
        <time>2011-04-10T08:22:08Z</time>
      </trkpt>
      <trkpt lat="42.98291" lon="0.54825">
        <ele>1071.598</ele>
        <time>2011-04-10T08:22:33Z</time>
      </trkpt>
      <trkpt lat="42.98292" lon="0.54804">
        <ele>1074.814</ele>
        <time>2011-04-10T08:23:00Z</time>
      </trkpt>
      <trkpt lat="42.98292" lon="0.54791">
        <ele>1076.541</ele>
        <time>2011-04-10T08:23:16Z</time>
      </trkpt>
      <trkpt lat="42.98295" lon="0.54786">
        <ele>1077.33</ele>
        <time>2011-04-10T08:23:32Z</time>
      </trkpt>
      <trkpt lat="42.98295" lon="0.54785">
        <ele>1077.387</ele>
        <time>2011-04-10T08:23:56Z</time>
      </trkpt>
      <trkpt lat="42.98299" lon="0.54787">
        <ele>1076.229</ele>
        <time>2011-04-10T08:24:17Z</time>
      </trkpt>
      <trkpt lat="42.98302" lon="0.54789">
        <ele>1076.331</ele>
        <time>2011-04-10T08:24:51Z</time>
      </trkpt>
      <trkpt lat="42.98311" lon="0.54791">
        <ele>1076.642</ele>
        <time>2011-04-10T08:25:18Z</time>
      </trkpt>
      <trkpt lat="42.98311" lon="0.54795">
        <ele>1076.716</ele>
        <time>2011-04-10T08:25:45Z</time>
      </trkpt>
      <trkpt lat="42.98298" lon="0.54802">
        <ele>1077.291</ele>
        <time>2011-04-10T08:26:12Z</time>
      </trkpt>
      <trkpt lat="42.98301" lon="0.54789">
        <ele>1076.968</ele>
        <time>2011-04-10T08:27:01Z</time>
      </trkpt>
      <trkpt lat="42.98302" lon="0.54788">
        <ele>1077.497</ele>
        <time>2011-04-10T08:27:43Z</time>
      </trkpt>
      <trkpt lat="42.98303" lon="0.54787">
        <ele>1077.892</ele>
        <time>2011-04-10T08:28:13Z</time>
      </trkpt>
      <trkpt lat="42.98304" lon="0.54788">
        <ele>1077.817</ele>
        <time>2011-04-10T08:28:40Z</time>
      </trkpt>
      <trkpt lat="42.98305" lon="0.54789">
        <ele>1078.036</ele>
        <time>2011-04-10T08:29:22Z</time>
      </trkpt>
      <trkpt lat="42.98305" lon="0.54789">
        <ele>1077.511</ele>
        <time>2011-04-10T08:29:57Z</time>
      </trkpt>
      <trkpt lat="42.98304" lon="0.54789">
        <ele>1077.653</ele>
        <time>2011-04-10T08:30:24Z</time>
      </trkpt>
      <trkpt lat="42.98317" lon="0.54817">
        <ele>1078.034</ele>
        <time>2011-04-10T08:30:49Z</time>
      </trkpt>
      <trkpt lat="42.98296" lon="0.54773">
        <ele>1078.233</ele>
        <time>2011-04-10T08:31:13Z</time>
      </trkpt>
      <trkpt lat="42.98309" lon="0.54764">
        <ele>1077.881</ele>
        <time>2011-04-10T08:31:31Z</time>
      </trkpt>
      <trkpt lat="42.98329" lon="0.54752">
        <ele>1076.958</ele>
        <time>2011-04-10T08:31:53Z</time>
      </trkpt>
      <trkpt lat="42.98331" lon="0.54751">
        <ele>1077.101</ele>
        <time>2011-04-10T08:32:08Z</time>
      </trkpt>
      <trkpt lat="42.98331" lon="0.54749">
        <ele>1077.456</ele>
        <time>2011-04-10T08:32:12Z</time>
      </trkpt>
      <trkpt lat="42.98334" lon="0.54746">
        <ele>1078.453</ele>
        <time>2011-04-10T08:32:21Z</time>
      </trkpt>
      <trkpt lat="42.98335" lon="0.54742">
        <ele>1080.043</ele>
        <time>2011-04-10T08:32:31Z</time>
      </trkpt>
      <trkpt lat="42.98347" lon="0.54735">
        <ele>1080.894</ele>
        <time>2011-04-10T08:32:43Z</time>
      </trkpt>
      <trkpt lat="42.98363" lon="0.54727">
        <ele>1082.101</ele>
        <time>2011-04-10T08:33:04Z</time>
      </trkpt>
      <trkpt lat="42.98374" lon="0.54714">
        <ele>1083.03</ele>
        <time>2011-04-10T08:33:22Z</time>
      </trkpt>
      <trkpt lat="42.98375" lon="0.547">
        <ele>1085.192</ele>
        <time>2011-04-10T08:33:47Z</time>
      </trkpt>
      <trkpt lat="42.98386" lon="0.54692">
        <ele>1088.335</ele>
        <time>2011-04-10T08:34:10Z</time>
      </trkpt>
      <trkpt lat="42.98397" lon="0.54681">
        <ele>1091.618</ele>
        <time>2011-04-10T08:34:36Z</time>
      </trkpt>
      <trkpt lat="42.98405" lon="0.54673">
        <ele>1092.286</ele>
        <time>2011-04-10T08:34:52Z</time>
      </trkpt>
      <trkpt lat="42.98417" lon="0.54666">
        <ele>1095.329</ele>
        <time>2011-04-10T08:35:14Z</time>
      </trkpt>
      <trkpt lat="42.9843" lon="0.54667">
        <ele>1096.857</ele>
        <time>2011-04-10T08:35:41Z</time>
      </trkpt>
      <trkpt lat="42.98438" lon="0.5466">
        <ele>1097.379</ele>
        <time>2011-04-10T08:36:02Z</time>
      </trkpt>
      <trkpt lat="42.98442" lon="0.54656">
        <ele>1097.203</ele>
        <time>2011-04-10T08:36:37Z</time>
      </trkpt>
      <trkpt lat="42.98461" lon="0.54654">
        <ele>1097.52</ele>
        <time>2011-04-10T08:37:14Z</time>
      </trkpt>
      <trkpt lat="42.98461" lon="0.54654">
        <ele>1097.602</ele>
        <time>2011-04-10T08:37:15Z</time>
      </trkpt>
      <trkpt lat="42.98459" lon="0.54656">
        <ele>1099.275</ele>
        <time>2011-04-10T08:37:35Z</time>
      </trkpt>
      <trkpt lat="42.98466" lon="0.5465">
        <ele>1100.949</ele>
        <time>2011-04-10T08:37:53Z</time>
      </trkpt>
      <trkpt lat="42.98475" lon="0.54645">
        <ele>1103.162</ele>
        <time>2011-04-10T08:38:13Z</time>
      </trkpt>
      <trkpt lat="42.98483" lon="0.54642">
        <ele>1105.38</ele>
        <time>2011-04-10T08:38:37Z</time>
      </trkpt>
      <trkpt lat="42.98492" lon="0.54627">
        <ele>1108.026</ele>
        <time>2011-04-10T08:39:04Z</time>
      </trkpt>
      <trkpt lat="42.98513" lon="0.54609">
        <ele>1110.129</ele>
        <time>2011-04-10T08:39:32Z</time>
      </trkpt>
      <trkpt lat="42.98524" lon="0.54606">
        <ele>1112.719</ele>
        <time>2011-04-10T08:39:58Z</time>
      </trkpt>
      <trkpt lat="42.98523" lon="0.54596">
        <ele>1112.996</ele>
        <time>2011-04-10T08:40:29Z</time>
      </trkpt>
      <trkpt lat="42.98515" lon="0.54592">
        <ele>1115.333</ele>
        <time>2011-04-10T08:40:50Z</time>
      </trkpt>
      <trkpt lat="42.98508" lon="0.54592">
        <ele>1118.17</ele>
        <time>2011-04-10T08:41:09Z</time>
      </trkpt>
      <trkpt lat="42.98497" lon="0.54598">
        <ele>1120.972</ele>
        <time>2011-04-10T08:41:32Z</time>
      </trkpt>
      <trkpt lat="42.98488" lon="0.54595">
        <ele>1123.474</ele>
        <time>2011-04-10T08:41:54Z</time>
      </trkpt>
      <trkpt lat="42.98476" lon="0.54591">
        <ele>1126.547</ele>
        <time>2011-04-10T08:42:14Z</time>
      </trkpt>
      <trkpt lat="42.98471" lon="0.54588">
        <ele>1129.236</ele>
        <time>2011-04-10T08:42:33Z</time>
      </trkpt>
      <trkpt lat="42.98469" lon="0.54579">
        <ele>1132.481</ele>
        <time>2011-04-10T08:42:59Z</time>
      </trkpt>
      <trkpt lat="42.98465" lon="0.54567">
        <ele>1135.179</ele>
        <time>2011-04-10T08:43:24Z</time>
      </trkpt>
      <trkpt lat="42.98462" lon="0.5456">
        <ele>1138.231</ele>
        <time>2011-04-10T08:43:49Z</time>
      </trkpt>
      <trkpt lat="42.98458" lon="0.54543">
        <ele>1141.266</ele>
        <time>2011-04-10T08:44:18Z</time>
      </trkpt>
      <trkpt lat="42.98456" lon="0.5453">
        <ele>1144.147</ele>
        <time>2011-04-10T08:44:40Z</time>
      </trkpt>
      <trkpt lat="42.98452" lon="0.54526">
        <ele>1146.017</ele>
        <time>2011-04-10T08:44:57Z</time>
      </trkpt>
      <trkpt lat="42.98451" lon="0.54515">
        <ele>1148.397</ele>
        <time>2011-04-10T08:45:17Z</time>
      </trkpt>
      <trkpt lat="42.98444" lon="0.54509">
        <ele>1150.853</ele>
        <time>2011-04-10T08:45:41Z</time>
      </trkpt>
      <trkpt lat="42.98438" lon="0.54512">
        <ele>1152.603</ele>
        <time>2011-04-10T08:46:02Z</time>
      </trkpt>
      <trkpt lat="42.98438" lon="0.54514">
        <ele>1153.32</ele>
        <time>2011-04-10T08:46:21Z</time>
      </trkpt>
      <trkpt lat="42.98438" lon="0.54507">
        <ele>1154.532</ele>
        <time>2011-04-10T08:46:42Z</time>
      </trkpt>
      <trkpt lat="42.98436" lon="0.54491">
        <ele>1157.216</ele>
        <time>2011-04-10T08:46:59Z</time>
      </trkpt>
      <trkpt lat="42.98445" lon="0.54479">
        <ele>1160.551</ele>
        <time>2011-04-10T08:47:22Z</time>
      </trkpt>
      <trkpt lat="42.98457" lon="0.54477">
        <ele>1163.686</ele>
        <time>2011-04-10T08:47:44Z</time>
      </trkpt>
      <trkpt lat="42.98477" lon="0.54477">
        <ele>1166.999</ele>
        <time>2011-04-10T08:48:07Z</time>
      </trkpt>
      <trkpt lat="42.98492" lon="0.54462">
        <ele>1169.846</ele>
        <time>2011-04-10T08:48:32Z</time>
      </trkpt>
      <trkpt lat="42.98504" lon="0.54447">
        <ele>1172.887</ele>
        <time>2011-04-10T08:48:55Z</time>
      </trkpt>
      <trkpt lat="42.9851" lon="0.5445">
        <ele>1175.892</ele>
        <time>2011-04-10T08:49:14Z</time>
      </trkpt>
      <trkpt lat="42.98524" lon="0.54446">
        <ele>1178.046</ele>
        <time>2011-04-10T08:49:34Z</time>
      </trkpt>
      <trkpt lat="42.98544" lon="0.54445">
        <ele>1181.057</ele>
        <time>2011-04-10T08:49:55Z</time>
      </trkpt>
      <trkpt lat="42.98551" lon="0.54442">
        <ele>1184.256</ele>
        <time>2011-04-10T08:50:18Z</time>
      </trkpt>
      <trkpt lat="42.98556" lon="0.54438">
        <ele>1185.256</ele>
        <time>2011-04-10T08:50:27Z</time>
      </trkpt>
      <trkpt lat="42.98563" lon="0.54431">
        <ele>1188.032</ele>
        <time>2011-04-10T08:50:46Z</time>
      </trkpt>
      <trkpt lat="42.98573" lon="0.54421">
        <ele>1189.641</ele>
        <time>2011-04-10T08:51:00Z</time>
      </trkpt>
      <trkpt lat="42.98581" lon="0.54411">
        <ele>1192.439</ele>
        <time>2011-04-10T08:51:25Z</time>
      </trkpt>
      <trkpt lat="42.98583" lon="0.54401">
        <ele>1194.377</ele>
        <time>2011-04-10T08:51:45Z</time>
      </trkpt>
      <trkpt lat="42.98585" lon="0.54392">
        <ele>1197.638</ele>
        <time>2011-04-10T08:52:04Z</time>
      </trkpt>
      <trkpt lat="42.98587" lon="0.54374">
        <ele>1200.669</ele>
        <time>2011-04-10T08:52:28Z</time>
      </trkpt>
      <trkpt lat="42.98586" lon="0.54361">
        <ele>1203.215</ele>
        <time>2011-04-10T08:52:49Z</time>
      </trkpt>
      <trkpt lat="42.98591" lon="0.54345">
        <ele>1205.748</ele>
        <time>2011-04-10T08:53:10Z</time>
      </trkpt>
      <trkpt lat="42.98593" lon="0.54332">
        <ele>1208.518</ele>
        <time>2011-04-10T08:53:31Z</time>
      </trkpt>
      <trkpt lat="42.98593" lon="0.54324">
        <ele>1210.769</ele>
        <time>2011-04-10T08:53:49Z</time>
      </trkpt>
      <trkpt lat="42.98594" lon="0.54325">
        <ele>1211.293</ele>
        <time>2011-04-10T08:54:12Z</time>
      </trkpt>
      <trkpt lat="42.98597" lon="0.54319">
        <ele>1212.228</ele>
        <time>2011-04-10T08:54:33Z</time>
      </trkpt>
      <trkpt lat="42.98598" lon="0.54311">
        <ele>1213.043</ele>
        <time>2011-04-10T08:54:48Z</time>
      </trkpt>
      <trkpt lat="42.98597" lon="0.54299">
        <ele>1214.632</ele>
        <time>2011-04-10T08:55:03Z</time>
      </trkpt>
      <trkpt lat="42.98597" lon="0.54298">
        <ele>1214.87</ele>
        <time>2011-04-10T08:55:05Z</time>
      </trkpt>
      <trkpt lat="42.98597" lon="0.54292">
        <ele>1216.718</ele>
        <time>2011-04-10T08:55:13Z</time>
      </trkpt>
      <trkpt lat="42.98597" lon="0.54283">
        <ele>1217.664</ele>
        <time>2011-04-10T08:55:25Z</time>
      </trkpt>
      <trkpt lat="42.98602" lon="0.54279">
        <ele>1219.113</ele>
        <time>2011-04-10T08:55:34Z</time>
      </trkpt>
      <trkpt lat="42.98601" lon="0.5427">
        <ele>1220.995</ele>
        <time>2011-04-10T08:55:47Z</time>
      </trkpt>
      <trkpt lat="42.986" lon="0.54256">
        <ele>1224.121</ele>
        <time>2011-04-10T08:56:04Z</time>
      </trkpt>
      <trkpt lat="42.98601" lon="0.54242">
        <ele>1226.248</ele>
        <time>2011-04-10T08:56:21Z</time>
      </trkpt>
      <trkpt lat="42.986" lon="0.54236">
        <ele>1228.514</ele>
        <time>2011-04-10T08:56:39Z</time>
      </trkpt>
      <trkpt lat="42.98593" lon="0.54249">
        <ele>1230.364</ele>
        <time>2011-04-10T08:56:57Z</time>
      </trkpt>
      <trkpt lat="42.98583" lon="0.54257">
        <ele>1233.478</ele>
        <time>2011-04-10T08:57:15Z</time>
      </trkpt>
      <trkpt lat="42.98573" lon="0.54248">
        <ele>1236.633</ele>
        <time>2011-04-10T08:57:33Z</time>
      </trkpt>
      <trkpt lat="42.98577" lon="0.5423">
        <ele>1239.377</ele>
        <time>2011-04-10T08:57:53Z</time>
      </trkpt>
      <trkpt lat="42.98576" lon="0.54209">
        <ele>1241.957</ele>
        <time>2011-04-10T08:58:14Z</time>
      </trkpt>
      <trkpt lat="42.98577" lon="0.54195">
        <ele>1244.987</ele>
        <time>2011-04-10T08:58:38Z</time>
      </trkpt>
      <trkpt lat="42.98578" lon="0.54182">
        <ele>1247.941</ele>
        <time>2011-04-10T08:59:00Z</time>
      </trkpt>
      <trkpt lat="42.98581" lon="0.54166">
        <ele>1251.091</ele>
        <time>2011-04-10T08:59:21Z</time>
      </trkpt>
      <trkpt lat="42.98587" lon="0.54152">
        <ele>1253.58</ele>
        <time>2011-04-10T08:59:41Z</time>
      </trkpt>
      <trkpt lat="42.98592" lon="0.54135">
        <ele>1256.548</ele>
        <time>2011-04-10T09:00:00Z</time>
      </trkpt>
      <trkpt lat="42.98592" lon="0.54127">
        <ele>1258.75</ele>
        <time>2011-04-10T09:00:19Z</time>
      </trkpt>
      <trkpt lat="42.98594" lon="0.54112">
        <ele>1262.027</ele>
        <time>2011-04-10T09:00:39Z</time>
      </trkpt>
      <trkpt lat="42.98596" lon="0.54098">
        <ele>1265.172</ele>
        <time>2011-04-10T09:00:59Z</time>
      </trkpt>
      <trkpt lat="42.98599" lon="0.54089">
        <ele>1267.542</ele>
        <time>2011-04-10T09:01:18Z</time>
      </trkpt>
      <trkpt lat="42.98604" lon="0.54072">
        <ele>1270.73</ele>
        <time>2011-04-10T09:01:38Z</time>
      </trkpt>
      <trkpt lat="42.98609" lon="0.5406">
        <ele>1273.775</ele>
        <time>2011-04-10T09:01:57Z</time>
      </trkpt>
      <trkpt lat="42.98604" lon="0.54055">
        <ele>1276.191</ele>
        <time>2011-04-10T09:02:18Z</time>
      </trkpt>
      <trkpt lat="42.98597" lon="0.54068">
        <ele>1278.391</ele>
        <time>2011-04-10T09:02:33Z</time>
      </trkpt>
      <trkpt lat="42.98595" lon="0.54069">
        <ele>1278.861</ele>
        <time>2011-04-10T09:02:38Z</time>
      </trkpt>
      <trkpt lat="42.98587" lon="0.54077">
        <ele>1281.024</ele>
        <time>2011-04-10T09:02:52Z</time>
      </trkpt>
      <trkpt lat="42.98577" lon="0.54089">
        <ele>1283.113</ele>
        <time>2011-04-10T09:03:07Z</time>
      </trkpt>
      <trkpt lat="42.98568" lon="0.54097">
        <ele>1285.451</ele>
        <time>2011-04-10T09:03:24Z</time>
      </trkpt>
      <trkpt lat="42.98559" lon="0.54104">
        <ele>1287.781</ele>
        <time>2011-04-10T09:03:41Z</time>
      </trkpt>
      <trkpt lat="42.98548" lon="0.54111">
        <ele>1290.172</ele>
        <time>2011-04-10T09:04:02Z</time>
      </trkpt>
      <trkpt lat="42.98534" lon="0.54121">
        <ele>1292.65</ele>
        <time>2011-04-10T09:04:27Z</time>
      </trkpt>
      <trkpt lat="42.98526" lon="0.5413">
        <ele>1295.504</ele>
        <time>2011-04-10T09:04:45Z</time>
      </trkpt>
      <trkpt lat="42.98517" lon="0.54141">
        <ele>1296.892</ele>
        <time>2011-04-10T09:05:01Z</time>
      </trkpt>
      <trkpt lat="42.98508" lon="0.54137">
        <ele>1298.638</ele>
        <time>2011-04-10T09:05:18Z</time>
      </trkpt>
      <trkpt lat="42.98513" lon="0.54112">
        <ele>1300.931</ele>
        <time>2011-04-10T09:05:42Z</time>
      </trkpt>
      <trkpt lat="42.9852" lon="0.54095">
        <ele>1303.055</ele>
        <time>2011-04-10T09:06:03Z</time>
      </trkpt>
      <trkpt lat="42.98526" lon="0.54077">
        <ele>1304.918</ele>
        <time>2011-04-10T09:06:22Z</time>
      </trkpt>
      <trkpt lat="42.98534" lon="0.54056">
        <ele>1307.252</ele>
        <time>2011-04-10T09:06:44Z</time>
      </trkpt>
      <trkpt lat="42.98533" lon="0.54042">
        <ele>1310.148</ele>
        <time>2011-04-10T09:07:07Z</time>
      </trkpt>
      <trkpt lat="42.98539" lon="0.54017">
        <ele>1313.229</ele>
        <time>2011-04-10T09:07:35Z</time>
      </trkpt>
      <trkpt lat="42.98546" lon="0.53992">
        <ele>1315.558</ele>
        <time>2011-04-10T09:07:57Z</time>
      </trkpt>
      <trkpt lat="42.98554" lon="0.53967">
        <ele>1318.008</ele>
        <time>2011-04-10T09:08:21Z</time>
      </trkpt>
      <trkpt lat="42.9856" lon="0.53939">
        <ele>1320.644</ele>
        <time>2011-04-10T09:08:47Z</time>
      </trkpt>
      <trkpt lat="42.98561" lon="0.53917">
        <ele>1323.3</ele>
        <time>2011-04-10T09:09:12Z</time>
      </trkpt>
      <trkpt lat="42.98574" lon="0.539">
        <ele>1325.431</ele>
        <time>2011-04-10T09:09:35Z</time>
      </trkpt>
      <trkpt lat="42.98582" lon="0.53877">
        <ele>1328.495</ele>
        <time>2011-04-10T09:09:56Z</time>
      </trkpt>
      <trkpt lat="42.9859" lon="0.53858">
        <ele>1330.444</ele>
        <time>2011-04-10T09:10:18Z</time>
      </trkpt>
      <trkpt lat="42.98599" lon="0.53834">
        <ele>1332.871</ele>
        <time>2011-04-10T09:10:40Z</time>
      </trkpt>
      <trkpt lat="42.98605" lon="0.53812">
        <ele>1334.848</ele>
        <time>2011-04-10T09:11:01Z</time>
      </trkpt>
      <trkpt lat="42.98608" lon="0.53793">
        <ele>1336.607</ele>
        <time>2011-04-10T09:11:21Z</time>
      </trkpt>
      <trkpt lat="42.98608" lon="0.5378">
        <ele>1338.629</ele>
        <time>2011-04-10T09:11:34Z</time>
      </trkpt>
      <trkpt lat="42.98611" lon="0.53769">
        <ele>1339.349</ele>
        <time>2011-04-10T09:11:51Z</time>
      </trkpt>
      <trkpt lat="42.98615" lon="0.53748">
        <ele>1342.109</ele>
        <time>2011-04-10T09:12:12Z</time>
      </trkpt>
      <trkpt lat="42.98619" lon="0.53738">
        <ele>1342.424</ele>
        <time>2011-04-10T09:12:20Z</time>
      </trkpt>
      <trkpt lat="42.98618" lon="0.53719">
        <ele>1345.369</ele>
        <time>2011-04-10T09:12:43Z</time>
      </trkpt>
      <trkpt lat="42.98622" lon="0.53714">
        <ele>1343.795</ele>
        <time>2011-04-10T09:13:02Z</time>
      </trkpt>
      <trkpt lat="42.98623" lon="0.53716">
        <ele>1343.577</ele>
        <time>2011-04-10T09:13:30Z</time>
      </trkpt>
      <trkpt lat="42.98623" lon="0.53717">
        <ele>1344.194</ele>
        <time>2011-04-10T09:13:51Z</time>
      </trkpt>
      <trkpt lat="42.98623" lon="0.53717">
        <ele>1343.572</ele>
        <time>2011-04-10T09:14:25Z</time>
      </trkpt>
      <trkpt lat="42.98624" lon="0.53717">
        <ele>1343.356</ele>
        <time>2011-04-10T09:15:02Z</time>
      </trkpt>
      <trkpt lat="42.98624" lon="0.53717">
        <ele>1343.61</ele>
        <time>2011-04-10T09:15:34Z</time>
      </trkpt>
      <trkpt lat="42.98625" lon="0.53722">
        <ele>1344.757</ele>
        <time>2011-04-10T09:15:59Z</time>
      </trkpt>
      <trkpt lat="42.98624" lon="0.53709">
        <ele>1345.135</ele>
        <time>2011-04-10T09:16:17Z</time>
      </trkpt>
      <trkpt lat="42.98624" lon="0.5369">
        <ele>1346.851</ele>
        <time>2011-04-10T09:16:35Z</time>
      </trkpt>
      <trkpt lat="42.98625" lon="0.53672">
        <ele>1348.783</ele>
        <time>2011-04-10T09:16:49Z</time>
      </trkpt>
      <trkpt lat="42.98628" lon="0.53655">
        <ele>1350.182</ele>
        <time>2011-04-10T09:17:04Z</time>
      </trkpt>
      <trkpt lat="42.98624" lon="0.53637">
        <ele>1351.061</ele>
        <time>2011-04-10T09:17:22Z</time>
      </trkpt>
      <trkpt lat="42.98618" lon="0.53619">
        <ele>1353.148</ele>
        <time>2011-04-10T09:17:42Z</time>
      </trkpt>
      <trkpt lat="42.98615" lon="0.536">
        <ele>1356.34</ele>
        <time>2011-04-10T09:18:04Z</time>
      </trkpt>
      <trkpt lat="42.9861" lon="0.53585">
        <ele>1359.407</ele>
        <time>2011-04-10T09:18:24Z</time>
      </trkpt>
      <trkpt lat="42.98602" lon="0.53593">
        <ele>1361.639</ele>
        <time>2011-04-10T09:18:40Z</time>
      </trkpt>
      <trkpt lat="42.98598" lon="0.5361">
        <ele>1363.663</ele>
        <time>2011-04-10T09:18:59Z</time>
      </trkpt>
      <trkpt lat="42.98593" lon="0.53629">
        <ele>1366.798</ele>
        <time>2011-04-10T09:19:20Z</time>
      </trkpt>
      <trkpt lat="42.98583" lon="0.53647">
        <ele>1369.449</ele>
        <time>2011-04-10T09:19:41Z</time>
      </trkpt>
      <trkpt lat="42.98578" lon="0.53668">
        <ele>1371.777</ele>
        <time>2011-04-10T09:20:01Z</time>
      </trkpt>
      <trkpt lat="42.9857" lon="0.53683">
        <ele>1374.816</ele>
        <time>2011-04-10T09:20:21Z</time>
      </trkpt>
      <trkpt lat="42.98561" lon="0.53697">
        <ele>1376.922</ele>
        <time>2011-04-10T09:20:41Z</time>
      </trkpt>
      <trkpt lat="42.98555" lon="0.53714">
        <ele>1379.419</ele>
        <time>2011-04-10T09:20:58Z</time>
      </trkpt>
      <trkpt lat="42.98548" lon="0.5373">
        <ele>1381.279</ele>
        <time>2011-04-10T09:21:16Z</time>
      </trkpt>
      <trkpt lat="42.98539" lon="0.53753">
        <ele>1383.878</ele>
        <time>2011-04-10T09:21:36Z</time>
      </trkpt>
      <trkpt lat="42.98531" lon="0.53769">
        <ele>1386.282</ele>
        <time>2011-04-10T09:21:55Z</time>
      </trkpt>
      <trkpt lat="42.98521" lon="0.53783">
        <ele>1388.727</ele>
        <time>2011-04-10T09:22:14Z</time>
      </trkpt>
      <trkpt lat="42.98515" lon="0.53791">
        <ele>1390.307</ele>
        <time>2011-04-10T09:22:27Z</time>
      </trkpt>
      <trkpt lat="42.98502" lon="0.53805">
        <ele>1392.815</ele>
        <time>2011-04-10T09:22:48Z</time>
      </trkpt>
      <trkpt lat="42.98494" lon="0.53818">
        <ele>1394.988</ele>
        <time>2011-04-10T09:23:07Z</time>
      </trkpt>
      <trkpt lat="42.98485" lon="0.53838">
        <ele>1397.79</ele>
        <time>2011-04-10T09:23:27Z</time>
      </trkpt>
      <trkpt lat="42.98476" lon="0.53853">
        <ele>1399.739</ele>
        <time>2011-04-10T09:23:46Z</time>
      </trkpt>
      <trkpt lat="42.98467" lon="0.5387">
        <ele>1402.121</ele>
        <time>2011-04-10T09:24:03Z</time>
      </trkpt>
      <trkpt lat="42.9846" lon="0.53882">
        <ele>1404.084</ele>
        <time>2011-04-10T09:24:16Z</time>
      </trkpt>
      <trkpt lat="42.9846" lon="0.53882">
        <ele>1404.426</ele>
        <time>2011-04-10T09:24:17Z</time>
      </trkpt>
      <trkpt lat="42.98448" lon="0.53896">
        <ele>1407.032</ele>
        <time>2011-04-10T09:24:36Z</time>
      </trkpt>
      <trkpt lat="42.98436" lon="0.53913">
        <ele>1409.684</ele>
        <time>2011-04-10T09:24:57Z</time>
      </trkpt>
      <trkpt lat="42.98426" lon="0.53928">
        <ele>1412.322</ele>
        <time>2011-04-10T09:25:16Z</time>
      </trkpt>
      <trkpt lat="42.98416" lon="0.53941">
        <ele>1414.26</ele>
        <time>2011-04-10T09:25:33Z</time>
      </trkpt>
      <trkpt lat="42.98407" lon="0.53949">
        <ele>1416.682</ele>
        <time>2011-04-10T09:25:50Z</time>
      </trkpt>
      <trkpt lat="42.9839" lon="0.53968">
        <ele>1419.317</ele>
        <time>2011-04-10T09:26:12Z</time>
      </trkpt>
      <trkpt lat="42.98379" lon="0.53976">
        <ele>1420.694</ele>
        <time>2011-04-10T09:26:27Z</time>
      </trkpt>
      <trkpt lat="42.98365" lon="0.53981">
        <ele>1423.953</ele>
        <time>2011-04-10T09:26:47Z</time>
      </trkpt>
      <trkpt lat="42.98361" lon="0.53981">
        <ele>1424.268</ele>
        <time>2011-04-10T09:26:51Z</time>
      </trkpt>
      <trkpt lat="42.98353" lon="0.53977">
        <ele>1426.851</ele>
        <time>2011-04-10T09:27:07Z</time>
      </trkpt>
      <trkpt lat="42.98341" lon="0.53976">
        <ele>1428.751</ele>
        <time>2011-04-10T09:27:26Z</time>
      </trkpt>
      <trkpt lat="42.98327" lon="0.53977">
        <ele>1431.645</ele>
        <time>2011-04-10T09:27:47Z</time>
      </trkpt>
      <trkpt lat="42.98314" lon="0.53985">
        <ele>1434.69</ele>
        <time>2011-04-10T09:28:06Z</time>
      </trkpt>
      <trkpt lat="42.98303" lon="0.53989">
        <ele>1435.946</ele>
        <time>2011-04-10T09:28:24Z</time>
      </trkpt>
      <trkpt lat="42.98287" lon="0.54002">
        <ele>1439.374</ele>
        <time>2011-04-10T09:28:46Z</time>
      </trkpt>
      <trkpt lat="42.98273" lon="0.54012">
        <ele>1441.154</ele>
        <time>2011-04-10T09:29:04Z</time>
      </trkpt>
      <trkpt lat="42.98266" lon="0.54019">
        <ele>1441.305</ele>
        <time>2011-04-10T09:29:14Z</time>
      </trkpt>
      <trkpt lat="42.98253" lon="0.54029">
        <ele>1443.18</ele>
        <time>2011-04-10T09:29:32Z</time>
      </trkpt>
      <trkpt lat="42.9824" lon="0.54045">
        <ele>1446.234</ele>
        <time>2011-04-10T09:29:51Z</time>
      </trkpt>
      <trkpt lat="42.98227" lon="0.54053">
        <ele>1448.375</ele>
        <time>2011-04-10T09:30:08Z</time>
      </trkpt>
      <trkpt lat="42.98215" lon="0.54057">
        <ele>1450.376</ele>
        <time>2011-04-10T09:30:26Z</time>
      </trkpt>
      <trkpt lat="42.98203" lon="0.54066">
        <ele>1453.044</ele>
        <time>2011-04-10T09:30:45Z</time>
      </trkpt>
      <trkpt lat="42.9819" lon="0.54076">
        <ele>1456.333</ele>
        <time>2011-04-10T09:31:04Z</time>
      </trkpt>
      <trkpt lat="42.98177" lon="0.54082">
        <ele>1458.509</ele>
        <time>2011-04-10T09:31:21Z</time>
      </trkpt>
      <trkpt lat="42.98163" lon="0.54092">
        <ele>1460.897</ele>
        <time>2011-04-10T09:31:41Z</time>
      </trkpt>
      <trkpt lat="42.98148" lon="0.54092">
        <ele>1463.628</ele>
        <time>2011-04-10T09:32:00Z</time>
      </trkpt>
      <trkpt lat="42.9814" lon="0.54098">
        <ele>1465.245</ele>
        <time>2011-04-10T09:32:18Z</time>
      </trkpt>
      <trkpt lat="42.98135" lon="0.54098">
        <ele>1468.486</ele>
        <time>2011-04-10T09:32:38Z</time>
      </trkpt>
      <trkpt lat="42.98119" lon="0.54108">
        <ele>1471.028</ele>
        <time>2011-04-10T09:33:03Z</time>
      </trkpt>
      <trkpt lat="42.98111" lon="0.54119">
        <ele>1474.063</ele>
        <time>2011-04-10T09:33:27Z</time>
      </trkpt>
      <trkpt lat="42.98096" lon="0.54118">
        <ele>1477.604</ele>
        <time>2011-04-10T09:33:51Z</time>
      </trkpt>
      <trkpt lat="42.98087" lon="0.54126">
        <ele>1477.32</ele>
        <time>2011-04-10T09:34:10Z</time>
      </trkpt>
      <trkpt lat="42.9807" lon="0.54131">
        <ele>1480.333</ele>
        <time>2011-04-10T09:34:32Z</time>
      </trkpt>
      <trkpt lat="42.98059" lon="0.5413">
        <ele>1482.234</ele>
        <time>2011-04-10T09:34:48Z</time>
      </trkpt>
      <trkpt lat="42.98047" lon="0.54136">
        <ele>1483.496</ele>
        <time>2011-04-10T09:35:09Z</time>
      </trkpt>
      <trkpt lat="42.98034" lon="0.5414">
        <ele>1484.635</ele>
        <time>2011-04-10T09:35:30Z</time>
      </trkpt>
      <trkpt lat="42.98028" lon="0.54148">
        <ele>1486.638</ele>
        <time>2011-04-10T09:35:49Z</time>
      </trkpt>
      <trkpt lat="42.98016" lon="0.54155">
        <ele>1487.927</ele>
        <time>2011-04-10T09:36:08Z</time>
      </trkpt>
      <trkpt lat="42.98013" lon="0.54154">
        <ele>1489.143</ele>
        <time>2011-04-10T09:36:21Z</time>
      </trkpt>
      <trkpt lat="42.98012" lon="0.54157">
        <ele>1489.063</ele>
        <time>2011-04-10T09:36:40Z</time>
      </trkpt>
      <trkpt lat="42.98011" lon="0.54154">
        <ele>1489.241</ele>
        <time>2011-04-10T09:37:12Z</time>
      </trkpt>
      <trkpt lat="42.98009" lon="0.54147">
        <ele>1488.93</ele>
        <time>2011-04-10T09:37:37Z</time>
      </trkpt>
      <trkpt lat="42.9801" lon="0.54138">
        <ele>1492.234</ele>
        <time>2011-04-10T09:37:48Z</time>
      </trkpt>
      <trkpt lat="42.98016" lon="0.54128">
        <ele>1492.976</ele>
        <time>2011-04-10T09:38:01Z</time>
      </trkpt>
      <trkpt lat="42.98014" lon="0.54129">
        <ele>1493.964</ele>
        <time>2011-04-10T09:38:03Z</time>
      </trkpt>
      <trkpt lat="42.98016" lon="0.54117">
        <ele>1495.392</ele>
        <time>2011-04-10T09:38:17Z</time>
      </trkpt>
      <trkpt lat="42.98018" lon="0.54108">
        <ele>1498.474</ele>
        <time>2011-04-10T09:38:29Z</time>
      </trkpt>
      <trkpt lat="42.9802" lon="0.54102">
        <ele>1500.12</ele>
        <time>2011-04-10T09:38:43Z</time>
      </trkpt>
      <trkpt lat="42.98028" lon="0.54087">
        <ele>1501.275</ele>
        <time>2011-04-10T09:39:02Z</time>
      </trkpt>
      <trkpt lat="42.98032" lon="0.54073">
        <ele>1503.825</ele>
        <time>2011-04-10T09:39:21Z</time>
      </trkpt>
      <trkpt lat="42.98037" lon="0.54065">
        <ele>1506.443</ele>
        <time>2011-04-10T09:39:40Z</time>
      </trkpt>
      <trkpt lat="42.98052" lon="0.54053">
        <ele>1508.69</ele>
        <time>2011-04-10T09:40:02Z</time>
      </trkpt>
      <trkpt lat="42.98061" lon="0.5404">
        <ele>1511.639</ele>
        <time>2011-04-10T09:40:23Z</time>
      </trkpt>
      <trkpt lat="42.98064" lon="0.5403">
        <ele>1514.248</ele>
        <time>2011-04-10T09:40:41Z</time>
      </trkpt>
      <trkpt lat="42.98064" lon="0.54029">
        <ele>1514.48</ele>
        <time>2011-04-10T09:40:42Z</time>
      </trkpt>
      <trkpt lat="42.98071" lon="0.54018">
        <ele>1516.336</ele>
        <time>2011-04-10T09:40:59Z</time>
      </trkpt>
      <trkpt lat="42.98073" lon="0.54013">
        <ele>1518.901</ele>
        <time>2011-04-10T09:41:14Z</time>
      </trkpt>
      <trkpt lat="42.98076" lon="0.54003">
        <ele>1519.473</ele>
        <time>2011-04-10T09:41:26Z</time>
      </trkpt>
      <trkpt lat="42.98078" lon="0.53985">
        <ele>1517.344</ele>
        <time>2011-04-10T09:41:42Z</time>
      </trkpt>
      <trkpt lat="42.98083" lon="0.53969">
        <ele>1517.193</ele>
        <time>2011-04-10T09:41:58Z</time>
      </trkpt>
      <trkpt lat="42.98089" lon="0.53953">
        <ele>1518.06</ele>
        <time>2011-04-10T09:42:15Z</time>
      </trkpt>
      <trkpt lat="42.98094" lon="0.53937">
        <ele>1520.846</ele>
        <time>2011-04-10T09:42:33Z</time>
      </trkpt>
      <trkpt lat="42.98098" lon="0.53928">
        <ele>1522.085</ele>
        <time>2011-04-10T09:42:43Z</time>
      </trkpt>
      <trkpt lat="42.98102" lon="0.53922">
        <ele>1523.152</ele>
        <time>2011-04-10T09:42:49Z</time>
      </trkpt>
      <trkpt lat="42.98105" lon="0.53919">
        <ele>1523.162</ele>
        <time>2011-04-10T09:42:52Z</time>
      </trkpt>
      <trkpt lat="42.98114" lon="0.53908">
        <ele>1524.236</ele>
        <time>2011-04-10T09:43:06Z</time>
      </trkpt>
      <trkpt lat="42.98122" lon="0.53894">
        <ele>1525.985</ele>
        <time>2011-04-10T09:43:24Z</time>
      </trkpt>
      <trkpt lat="42.98132" lon="0.53881">
        <ele>1528.498</ele>
        <time>2011-04-10T09:43:42Z</time>
      </trkpt>
      <trkpt lat="42.98139" lon="0.53868">
        <ele>1528.467</ele>
        <time>2011-04-10T09:43:57Z</time>
      </trkpt>
      <trkpt lat="42.9814" lon="0.53864">
        <ele>1530.186</ele>
        <time>2011-04-10T09:44:01Z</time>
      </trkpt>
      <trkpt lat="42.98147" lon="0.53844">
        <ele>1532.29</ele>
        <time>2011-04-10T09:44:20Z</time>
      </trkpt>
      <trkpt lat="42.98149" lon="0.53829">
        <ele>1533.644</ele>
        <time>2011-04-10T09:44:36Z</time>
      </trkpt>
      <trkpt lat="42.98154" lon="0.53813">
        <ele>1536.585</ele>
        <time>2011-04-10T09:44:53Z</time>
      </trkpt>
      <trkpt lat="42.98154" lon="0.53797">
        <ele>1538.647</ele>
        <time>2011-04-10T09:45:11Z</time>
      </trkpt>
      <trkpt lat="42.98153" lon="0.53795">
        <ele>1539.983</ele>
        <time>2011-04-10T09:45:14Z</time>
      </trkpt>
      <trkpt lat="42.98151" lon="0.53782">
        <ele>1543.448</ele>
        <time>2011-04-10T09:45:29Z</time>
      </trkpt>
      <trkpt lat="42.9815" lon="0.5377">
        <ele>1546.007</ele>
        <time>2011-04-10T09:45:44Z</time>
      </trkpt>
      <trkpt lat="42.98154" lon="0.5376">
        <ele>1545.247</ele>
        <time>2011-04-10T09:45:57Z</time>
      </trkpt>
      <trkpt lat="42.98156" lon="0.53759">
        <ele>1544.618</ele>
        <time>2011-04-10T09:46:04Z</time>
      </trkpt>
      <trkpt lat="42.98157" lon="0.5376">
        <ele>1545.629</ele>
        <time>2011-04-10T09:46:15Z</time>
      </trkpt>
      <trkpt lat="42.98158" lon="0.53761">
        <ele>1545.764</ele>
        <time>2011-04-10T09:46:28Z</time>
      </trkpt>
      <trkpt lat="42.98158" lon="0.53763">
        <ele>1546.304</ele>
        <time>2011-04-10T09:46:51Z</time>
      </trkpt>
      <trkpt lat="42.9816" lon="0.53763">
        <ele>1545.476</ele>
        <time>2011-04-10T09:47:06Z</time>
      </trkpt>
      <trkpt lat="42.98159" lon="0.53761">
        <ele>1545.549</ele>
        <time>2011-04-10T09:47:32Z</time>
      </trkpt>
      <trkpt lat="42.98157" lon="0.53763">
        <ele>1545.32</ele>
        <time>2011-04-10T09:47:55Z</time>
      </trkpt>
      <trkpt lat="42.98157" lon="0.53762">
        <ele>1545.228</ele>
        <time>2011-04-10T09:47:57Z</time>
      </trkpt>
    </trkseg>
  </trk>
  <trk>
    <name><![CDATA[ACTIVE LOG123323]]></name>
    <trkseg>
      <trkpt lat="42.98145" lon="0.53755">
        <ele>1544.438</ele>
        <time>2011-04-10T10:33:23Z</time>
      </trkpt>
      <trkpt lat="42.98145" lon="0.53756">
        <ele>1544.501</ele>
        <time>2011-04-10T10:33:24Z</time>
      </trkpt>
      <trkpt lat="42.9815" lon="0.53758">
        <ele>1544.395</ele>
        <time>2011-04-10T10:33:48Z</time>
      </trkpt>
      <trkpt lat="42.98155" lon="0.5376">
        <ele>1544.576</ele>
        <time>2011-04-10T10:34:14Z</time>
      </trkpt>
      <trkpt lat="42.98157" lon="0.53763">
        <ele>1544.297</ele>
        <time>2011-04-10T10:34:36Z</time>
      </trkpt>
      <trkpt lat="42.98154" lon="0.53764">
        <ele>1544.174</ele>
        <time>2011-04-10T10:35:04Z</time>
      </trkpt>
      <trkpt lat="42.98151" lon="0.53763">
        <ele>1545.111</ele>
        <time>2011-04-10T10:35:18Z</time>
      </trkpt>
      <trkpt lat="42.9815" lon="0.53764">
        <ele>1545.817</ele>
        <time>2011-04-10T10:35:44Z</time>
      </trkpt>
      <trkpt lat="42.98151" lon="0.53765">
        <ele>1544.446</ele>
        <time>2011-04-10T10:35:57Z</time>
      </trkpt>
      <trkpt lat="42.98151" lon="0.53766">
        <ele>1544.292</ele>
        <time>2011-04-10T10:36:13Z</time>
      </trkpt>
      <trkpt lat="42.98152" lon="0.53775">
        <ele>1542.081</ele>
        <time>2011-04-10T10:36:25Z</time>
      </trkpt>
      <trkpt lat="42.98151" lon="0.53781">
        <ele>1541.073</ele>
        <time>2011-04-10T10:36:37Z</time>
      </trkpt>
      <trkpt lat="42.98153" lon="0.53789">
        <ele>1538.876</ele>
        <time>2011-04-10T10:36:47Z</time>
      </trkpt>
      <trkpt lat="42.98153" lon="0.53801">
        <ele>1536.738</ele>
        <time>2011-04-10T10:37:00Z</time>
      </trkpt>
      <trkpt lat="42.98153" lon="0.53808">
        <ele>1535.871</ele>
        <time>2011-04-10T10:37:07Z</time>
      </trkpt>
      <trkpt lat="42.98148" lon="0.53827">
        <ele>1533.287</ele>
        <time>2011-04-10T10:37:25Z</time>
      </trkpt>
      <trkpt lat="42.98145" lon="0.53842">
        <ele>1530.979</ele>
        <time>2011-04-10T10:37:41Z</time>
      </trkpt>
      <trkpt lat="42.9814" lon="0.53862">
        <ele>1529.104</ele>
        <time>2011-04-10T10:37:58Z</time>
      </trkpt>
      <trkpt lat="42.98136" lon="0.53873">
        <ele>1528.239</ele>
        <time>2011-04-10T10:38:11Z</time>
      </trkpt>
      <trkpt lat="42.98136" lon="0.53874">
        <ele>1528.772</ele>
        <time>2011-04-10T10:38:25Z</time>
      </trkpt>
      <trkpt lat="42.98135" lon="0.53873">
        <ele>1528.439</ele>
        <time>2011-04-10T10:38:50Z</time>
      </trkpt>
      <trkpt lat="42.98135" lon="0.53873">
        <ele>1528.932</ele>
        <time>2011-04-10T10:39:29Z</time>
      </trkpt>
      <trkpt lat="42.98132" lon="0.53881">
        <ele>1528.171</ele>
        <time>2011-04-10T10:39:37Z</time>
      </trkpt>
      <trkpt lat="42.98127" lon="0.53887">
        <ele>1526.75</ele>
        <time>2011-04-10T10:39:43Z</time>
      </trkpt>
      <trkpt lat="42.98117" lon="0.53906">
        <ele>1523.777</ele>
        <time>2011-04-10T10:40:01Z</time>
      </trkpt>
      <trkpt lat="42.98103" lon="0.53925">
        <ele>1522.211</ele>
        <time>2011-04-10T10:40:19Z</time>
      </trkpt>
      <trkpt lat="42.98094" lon="0.53941">
        <ele>1519.587</ele>
        <time>2011-04-10T10:40:34Z</time>
      </trkpt>
      <trkpt lat="42.98088" lon="0.53961">
        <ele>1518.5</ele>
        <time>2011-04-10T10:40:50Z</time>
      </trkpt>
      <trkpt lat="42.98083" lon="0.53968">
        <ele>1517.555</ele>
        <time>2011-04-10T10:40:58Z</time>
      </trkpt>
      <trkpt lat="42.98077" lon="0.53996">
        <ele>1517.185</ele>
        <time>2011-04-10T10:41:18Z</time>
      </trkpt>
      <trkpt lat="42.98072" lon="0.54013">
        <ele>1517.686</ele>
        <time>2011-04-10T10:41:34Z</time>
      </trkpt>
      <trkpt lat="42.98067" lon="0.54023">
        <ele>1515.286</ele>
        <time>2011-04-10T10:41:45Z</time>
      </trkpt>
      <trkpt lat="42.98056" lon="0.54035">
        <ele>1513.05</ele>
        <time>2011-04-10T10:42:03Z</time>
      </trkpt>
      <trkpt lat="42.98056" lon="0.54037">
        <ele>1512.304</ele>
        <time>2011-04-10T10:42:06Z</time>
      </trkpt>
      <trkpt lat="42.98053" lon="0.5405">
        <ele>1509.312</ele>
        <time>2011-04-10T10:42:21Z</time>
      </trkpt>
      <trkpt lat="42.98053" lon="0.54052">
        <ele>1507.896</ele>
        <time>2011-04-10T10:42:26Z</time>
      </trkpt>
      <trkpt lat="42.98041" lon="0.54068">
        <ele>1505.853</ele>
        <time>2011-04-10T10:42:47Z</time>
      </trkpt>
      <trkpt lat="42.98031" lon="0.54077">
        <ele>1503.353</ele>
        <time>2011-04-10T10:43:02Z</time>
      </trkpt>
      <trkpt lat="42.98025" lon="0.54092">
        <ele>1499.978</ele>
        <time>2011-04-10T10:43:19Z</time>
      </trkpt>
      <trkpt lat="42.98022" lon="0.54109">
        <ele>1496.907</ele>
        <time>2011-04-10T10:43:36Z</time>
      </trkpt>
      <trkpt lat="42.98022" lon="0.54114">
        <ele>1495.672</ele>
        <time>2011-04-10T10:43:40Z</time>
      </trkpt>
      <trkpt lat="42.9802" lon="0.54126">
        <ele>1493.864</ele>
        <time>2011-04-10T10:43:57Z</time>
      </trkpt>
      <trkpt lat="42.98025" lon="0.54134">
        <ele>1490.495</ele>
        <time>2011-04-10T10:44:15Z</time>
      </trkpt>
      <trkpt lat="42.98023" lon="0.54145">
        <ele>1487.375</ele>
        <time>2011-04-10T10:44:31Z</time>
      </trkpt>
      <trkpt lat="42.98027" lon="0.5414">
        <ele>1486.244</ele>
        <time>2011-04-10T10:44:46Z</time>
      </trkpt>
      <trkpt lat="42.98033" lon="0.54136">
        <ele>1483.949</ele>
        <time>2011-04-10T10:45:07Z</time>
      </trkpt>
      <trkpt lat="42.98044" lon="0.5412">
        <ele>1483.205</ele>
        <time>2011-04-10T10:45:28Z</time>
      </trkpt>
      <trkpt lat="42.98057" lon="0.54111">
        <ele>1481.469</ele>
        <time>2011-04-10T10:45:47Z</time>
      </trkpt>
      <trkpt lat="42.98071" lon="0.54109">
        <ele>1481.093</ele>
        <time>2011-04-10T10:46:06Z</time>
      </trkpt>
      <trkpt lat="42.98085" lon="0.54112">
        <ele>1480.125</ele>
        <time>2011-04-10T10:46:24Z</time>
      </trkpt>
      <trkpt lat="42.98093" lon="0.54111">
        <ele>1478.104</ele>
        <time>2011-04-10T10:46:44Z</time>
      </trkpt>
      <trkpt lat="42.98099" lon="0.54107">
        <ele>1474.994</ele>
        <time>2011-04-10T10:47:00Z</time>
      </trkpt>
      <trkpt lat="42.98113" lon="0.541">
        <ele>1473.89</ele>
        <time>2011-04-10T10:47:17Z</time>
      </trkpt>
      <trkpt lat="42.9812" lon="0.54101">
        <ele>1470.626</ele>
        <time>2011-04-10T10:47:35Z</time>
      </trkpt>
      <trkpt lat="42.98129" lon="0.54093">
        <ele>1469.379</ele>
        <time>2011-04-10T10:47:55Z</time>
      </trkpt>
      <trkpt lat="42.98143" lon="0.54092">
        <ele>1466.783</ele>
        <time>2011-04-10T10:48:21Z</time>
      </trkpt>
      <trkpt lat="42.9816" lon="0.54087">
        <ele>1463.865</ele>
        <time>2011-04-10T10:48:45Z</time>
      </trkpt>
      <trkpt lat="42.98178" lon="0.54075">
        <ele>1461.073</ele>
        <time>2011-04-10T10:49:02Z</time>
      </trkpt>
      <trkpt lat="42.9819" lon="0.54066">
        <ele>1457.996</ele>
        <time>2011-04-10T10:49:19Z</time>
      </trkpt>
      <trkpt lat="42.98205" lon="0.54054">
        <ele>1455.958</ele>
        <time>2011-04-10T10:49:37Z</time>
      </trkpt>
      <trkpt lat="42.98216" lon="0.54043">
        <ele>1452.182</ele>
        <time>2011-04-10T10:49:55Z</time>
      </trkpt>
      <trkpt lat="42.9823" lon="0.54038">
        <ele>1450.076</ele>
        <time>2011-04-10T10:50:11Z</time>
      </trkpt>
      <trkpt lat="42.98249" lon="0.54039">
        <ele>1447.254</ele>
        <time>2011-04-10T10:50:28Z</time>
      </trkpt>
      <trkpt lat="42.98271" lon="0.5401">
        <ele>1444.486</ele>
        <time>2011-04-10T10:50:49Z</time>
      </trkpt>
      <trkpt lat="42.98281" lon="0.53998">
        <ele>1442.524</ele>
        <time>2011-04-10T10:51:08Z</time>
      </trkpt>
      <trkpt lat="42.98299" lon="0.53984">
        <ele>1439.195</ele>
        <time>2011-04-10T10:51:32Z</time>
      </trkpt>
      <trkpt lat="42.98314" lon="0.53979">
        <ele>1435.962</ele>
        <time>2011-04-10T10:51:51Z</time>
      </trkpt>
      <trkpt lat="42.98328" lon="0.53968">
        <ele>1433.03</ele>
        <time>2011-04-10T10:52:13Z</time>
      </trkpt>
      <trkpt lat="42.98339" lon="0.53964">
        <ele>1430.227</ele>
        <time>2011-04-10T10:52:27Z</time>
      </trkpt>
      <trkpt lat="42.9835" lon="0.53966">
        <ele>1426.974</ele>
        <time>2011-04-10T10:52:38Z</time>
      </trkpt>
      <trkpt lat="42.98358" lon="0.53975">
        <ele>1426.756</ele>
        <time>2011-04-10T10:52:54Z</time>
      </trkpt>
      <trkpt lat="42.98356" lon="0.53973">
        <ele>1426.857</ele>
        <time>2011-04-10T10:53:17Z</time>
      </trkpt>
      <trkpt lat="42.98355" lon="0.53971">
        <ele>1426.33</ele>
        <time>2011-04-10T10:53:38Z</time>
      </trkpt>
      <trkpt lat="42.98352" lon="0.53964">
        <ele>1426.385</ele>
        <time>2011-04-10T10:53:53Z</time>
      </trkpt>
      <trkpt lat="42.98353" lon="0.53957">
        <ele>1426.125</ele>
        <time>2011-04-10T10:54:23Z</time>
      </trkpt>
      <trkpt lat="42.98355" lon="0.53958">
        <ele>1426.746</ele>
        <time>2011-04-10T10:54:45Z</time>
      </trkpt>
      <trkpt lat="42.98357" lon="0.5396">
        <ele>1426.779</ele>
        <time>2011-04-10T10:55:14Z</time>
      </trkpt>
      <trkpt lat="42.98364" lon="0.53974">
        <ele>1426.313</ele>
        <time>2011-04-10T10:55:41Z</time>
      </trkpt>
      <trkpt lat="42.98365" lon="0.53974">
        <ele>1426.634</ele>
        <time>2011-04-10T10:56:10Z</time>
      </trkpt>
      <trkpt lat="42.98365" lon="0.53973">
        <ele>1426.421</ele>
        <time>2011-04-10T10:56:42Z</time>
      </trkpt>
      <trkpt lat="42.98365" lon="0.53974">
        <ele>1427.271</ele>
        <time>2011-04-10T10:57:08Z</time>
      </trkpt>
      <trkpt lat="42.98365" lon="0.53975">
        <ele>1427.116</ele>
        <time>2011-04-10T10:57:29Z</time>
      </trkpt>
      <trkpt lat="42.9835" lon="0.53973">
        <ele>1427.398</ele>
        <time>2011-04-10T10:57:54Z</time>
      </trkpt>
      <trkpt lat="42.98351" lon="0.53973">
        <ele>1426.716</ele>
        <time>2011-04-10T10:58:30Z</time>
      </trkpt>
      <trkpt lat="42.98353" lon="0.53977">
        <ele>1426.743</ele>
        <time>2011-04-10T10:58:55Z</time>
      </trkpt>
      <trkpt lat="42.98372" lon="0.53965">
        <ele>1423.949</ele>
        <time>2011-04-10T10:59:16Z</time>
      </trkpt>
      <trkpt lat="42.98394" lon="0.5395">
        <ele>1420.898</ele>
        <time>2011-04-10T10:59:37Z</time>
      </trkpt>
      <trkpt lat="42.98408" lon="0.53936">
        <ele>1417.561</ele>
        <time>2011-04-10T10:59:49Z</time>
      </trkpt>
      <trkpt lat="42.98424" lon="0.53918">
        <ele>1414.232</ele>
        <time>2011-04-10T11:00:11Z</time>
      </trkpt>
      <trkpt lat="42.98438" lon="0.53902">
        <ele>1411.079</ele>
        <time>2011-04-10T11:00:29Z</time>
      </trkpt>
      <trkpt lat="42.98452" lon="0.53888">
        <ele>1408.015</ele>
        <time>2011-04-10T11:00:45Z</time>
      </trkpt>
      <trkpt lat="42.98466" lon="0.53865">
        <ele>1405.415</ele>
        <time>2011-04-10T11:01:09Z</time>
      </trkpt>
      <trkpt lat="42.98477" lon="0.53847">
        <ele>1402.171</ele>
        <time>2011-04-10T11:01:25Z</time>
      </trkpt>
      <trkpt lat="42.98482" lon="0.53833">
        <ele>1400.327</ele>
        <time>2011-04-10T11:01:35Z</time>
      </trkpt>
      <trkpt lat="42.98481" lon="0.5383">
        <ele>1400.176</ele>
        <time>2011-04-10T11:01:37Z</time>
      </trkpt>
      <trkpt lat="42.98492" lon="0.53809">
        <ele>1397.371</ele>
        <time>2011-04-10T11:01:56Z</time>
      </trkpt>
      <trkpt lat="42.98507" lon="0.53788">
        <ele>1394.041</ele>
        <time>2011-04-10T11:02:18Z</time>
      </trkpt>
      <trkpt lat="42.98516" lon="0.53777">
        <ele>1390.915</ele>
        <time>2011-04-10T11:02:31Z</time>
      </trkpt>
      <trkpt lat="42.9853" lon="0.53753">
        <ele>1387.584</ele>
        <time>2011-04-10T11:02:53Z</time>
      </trkpt>
      <trkpt lat="42.98545" lon="0.53727">
        <ele>1384.191</ele>
        <time>2011-04-10T11:03:17Z</time>
      </trkpt>
      <trkpt lat="42.98548" lon="0.53712">
        <ele>1382.722</ele>
        <time>2011-04-10T11:03:27Z</time>
      </trkpt>
      <trkpt lat="42.98552" lon="0.53703">
        <ele>1381.42</ele>
        <time>2011-04-10T11:03:34Z</time>
      </trkpt>
      <trkpt lat="42.98553" lon="0.53695">
        <ele>1380.108</ele>
        <time>2011-04-10T11:03:38Z</time>
      </trkpt>
      <trkpt lat="42.98565" lon="0.53668">
        <ele>1377.014</ele>
        <time>2011-04-10T11:03:56Z</time>
      </trkpt>
      <trkpt lat="42.98574" lon="0.53642">
        <ele>1374.589</ele>
        <time>2011-04-10T11:04:14Z</time>
      </trkpt>
      <trkpt lat="42.98583" lon="0.53624">
        <ele>1371.598</ele>
        <time>2011-04-10T11:04:29Z</time>
      </trkpt>
      <trkpt lat="42.98591" lon="0.53593">
        <ele>1368.862</ele>
        <time>2011-04-10T11:04:48Z</time>
      </trkpt>
      <trkpt lat="42.986" lon="0.53582">
        <ele>1365.831</ele>
        <time>2011-04-10T11:05:05Z</time>
      </trkpt>
      <trkpt lat="42.98611" lon="0.53569">
        <ele>1362.738</ele>
        <time>2011-04-10T11:05:22Z</time>
      </trkpt>
      <trkpt lat="42.98614" lon="0.53585">
        <ele>1360.837</ele>
        <time>2011-04-10T11:05:33Z</time>
      </trkpt>
      <trkpt lat="42.98615" lon="0.53591">
        <ele>1360.091</ele>
        <time>2011-04-10T11:05:37Z</time>
      </trkpt>
      <trkpt lat="42.98622" lon="0.5361">
        <ele>1358.052</ele>
        <time>2011-04-10T11:05:50Z</time>
      </trkpt>
      <trkpt lat="42.98624" lon="0.53627">
        <ele>1356.625</ele>
        <time>2011-04-10T11:06:01Z</time>
      </trkpt>
      <trkpt lat="42.98628" lon="0.53654">
        <ele>1354.58</ele>
        <time>2011-04-10T11:06:19Z</time>
      </trkpt>
      <trkpt lat="42.98626" lon="0.53683">
        <ele>1352.9</ele>
        <time>2011-04-10T11:06:39Z</time>
      </trkpt>
      <trkpt lat="42.98624" lon="0.53704">
        <ele>1350.167</ele>
        <time>2011-04-10T11:06:54Z</time>
      </trkpt>
      <trkpt lat="42.98622" lon="0.53726">
        <ele>1348.12</ele>
        <time>2011-04-10T11:07:12Z</time>
      </trkpt>
      <trkpt lat="42.98618" lon="0.53749">
        <ele>1346.034</ele>
        <time>2011-04-10T11:07:29Z</time>
      </trkpt>
      <trkpt lat="42.98613" lon="0.53777">
        <ele>1343.098</ele>
        <time>2011-04-10T11:07:48Z</time>
      </trkpt>
      <trkpt lat="42.9861" lon="0.53802">
        <ele>1340.095</ele>
        <time>2011-04-10T11:08:07Z</time>
      </trkpt>
      <trkpt lat="42.98603" lon="0.53828">
        <ele>1337.544</ele>
        <time>2011-04-10T11:08:26Z</time>
      </trkpt>
      <trkpt lat="42.98593" lon="0.53852">
        <ele>1335.25</ele>
        <time>2011-04-10T11:08:46Z</time>
      </trkpt>
      <trkpt lat="42.98587" lon="0.5386">
        <ele>1333.848</ele>
        <time>2011-04-10T11:08:54Z</time>
      </trkpt>
      <trkpt lat="42.9858" lon="0.53889">
        <ele>1330.62</ele>
        <time>2011-04-10T11:09:14Z</time>
      </trkpt>
      <trkpt lat="42.98573" lon="0.53914">
        <ele>1327.5</ele>
        <time>2011-04-10T11:09:32Z</time>
      </trkpt>
      <trkpt lat="42.98566" lon="0.53945">
        <ele>1325.11</ele>
        <time>2011-04-10T11:09:53Z</time>
      </trkpt>
      <trkpt lat="42.98562" lon="0.5397">
        <ele>1321.834</ele>
        <time>2011-04-10T11:10:10Z</time>
      </trkpt>
      <trkpt lat="42.98555" lon="0.54004">
        <ele>1318.821</ele>
        <time>2011-04-10T11:10:32Z</time>
      </trkpt>
      <trkpt lat="42.9855" lon="0.54024">
        <ele>1315.43</ele>
        <time>2011-04-10T11:10:47Z</time>
      </trkpt>
      <trkpt lat="42.98543" lon="0.54047">
        <ele>1312.714</ele>
        <time>2011-04-10T11:11:05Z</time>
      </trkpt>
      <trkpt lat="42.98535" lon="0.54072">
        <ele>1309.479</ele>
        <time>2011-04-10T11:11:23Z</time>
      </trkpt>
      <trkpt lat="42.98529" lon="0.54093">
        <ele>1307.731</ele>
        <time>2011-04-10T11:11:39Z</time>
      </trkpt>
      <trkpt lat="42.98521" lon="0.54115">
        <ele>1304.601</ele>
        <time>2011-04-10T11:11:55Z</time>
      </trkpt>
      <trkpt lat="42.98513" lon="0.54138">
        <ele>1301.563</ele>
        <time>2011-04-10T11:12:16Z</time>
      </trkpt>
      <trkpt lat="42.98503" lon="0.54138">
        <ele>1301.087</ele>
        <time>2011-04-10T11:12:21Z</time>
      </trkpt>
      <trkpt lat="42.98514" lon="0.54121">
        <ele>1299.962</ele>
        <time>2011-04-10T11:12:38Z</time>
      </trkpt>
      <trkpt lat="42.98518" lon="0.54122">
        <ele>1298.248</ele>
        <time>2011-04-10T11:12:43Z</time>
      </trkpt>
      <trkpt lat="42.98529" lon="0.54113">
        <ele>1295.765</ele>
        <time>2011-04-10T11:12:57Z</time>
      </trkpt>
      <trkpt lat="42.98538" lon="0.54103">
        <ele>1292.871</ele>
        <time>2011-04-10T11:13:11Z</time>
      </trkpt>
      <trkpt lat="42.98556" lon="0.54084">
        <ele>1289.026</ele>
        <time>2011-04-10T11:13:30Z</time>
      </trkpt>
      <trkpt lat="42.98573" lon="0.54067">
        <ele>1285.969</ele>
        <time>2011-04-10T11:13:49Z</time>
      </trkpt>
      <trkpt lat="42.98579" lon="0.54061">
        <ele>1284.207</ele>
        <time>2011-04-10T11:13:57Z</time>
      </trkpt>
      <trkpt lat="42.98594" lon="0.54047">
        <ele>1281.439</ele>
        <time>2011-04-10T11:14:15Z</time>
      </trkpt>
      <trkpt lat="42.98599" lon="0.5404">
        <ele>1279.52</ele>
        <time>2011-04-10T11:14:22Z</time>
      </trkpt>
      <trkpt lat="42.98609" lon="0.54057">
        <ele>1276.68</ele>
        <time>2011-04-10T11:14:36Z</time>
      </trkpt>
      <trkpt lat="42.98608" lon="0.54063">
        <ele>1275.578</ele>
        <time>2011-04-10T11:14:40Z</time>
      </trkpt>
      <trkpt lat="42.98605" lon="0.54082">
        <ele>1272.05</ele>
        <time>2011-04-10T11:14:56Z</time>
      </trkpt>
      <trkpt lat="42.98602" lon="0.54101">
        <ele>1268.729</ele>
        <time>2011-04-10T11:15:11Z</time>
      </trkpt>
      <trkpt lat="42.98598" lon="0.54113">
        <ele>1266.489</ele>
        <time>2011-04-10T11:15:28Z</time>
      </trkpt>
      <trkpt lat="42.98596" lon="0.54129">
        <ele>1263.339</ele>
        <time>2011-04-10T11:15:42Z</time>
      </trkpt>
      <trkpt lat="42.9859" lon="0.54146">
        <ele>1260.022</ele>
        <time>2011-04-10T11:15:57Z</time>
      </trkpt>
      <trkpt lat="42.98584" lon="0.54161">
        <ele>1256.724</ele>
        <time>2011-04-10T11:16:13Z</time>
      </trkpt>
      <trkpt lat="42.98585" lon="0.54185">
        <ele>1253.597</ele>
        <time>2011-04-10T11:16:30Z</time>
      </trkpt>
      <trkpt lat="42.98584" lon="0.54197">
        <ele>1250.293</ele>
        <time>2011-04-10T11:16:44Z</time>
      </trkpt>
      <trkpt lat="42.98584" lon="0.54214">
        <ele>1247.136</ele>
        <time>2011-04-10T11:16:58Z</time>
      </trkpt>
      <trkpt lat="42.98581" lon="0.54235">
        <ele>1244.116</ele>
        <time>2011-04-10T11:17:12Z</time>
      </trkpt>
      <trkpt lat="42.98575" lon="0.54247">
        <ele>1242.593</ele>
        <time>2011-04-10T11:17:33Z</time>
      </trkpt>
      <trkpt lat="42.98572" lon="0.54241">
        <ele>1243.136</ele>
        <time>2011-04-10T11:18:08Z</time>
      </trkpt>
      <trkpt lat="42.9857" lon="0.54256">
        <ele>1241.749</ele>
        <time>2011-04-10T11:18:32Z</time>
      </trkpt>
      <trkpt lat="42.98577" lon="0.54258">
        <ele>1239.746</ele>
        <time>2011-04-10T11:18:47Z</time>
      </trkpt>
      <trkpt lat="42.98588" lon="0.54249">
        <ele>1236.46</ele>
        <time>2011-04-10T11:19:01Z</time>
      </trkpt>
      <trkpt lat="42.98595" lon="0.54242">
        <ele>1234.51</ele>
        <time>2011-04-10T11:19:11Z</time>
      </trkpt>
      <trkpt lat="42.98606" lon="0.54247">
        <ele>1233.023</ele>
        <time>2011-04-10T11:19:20Z</time>
      </trkpt>
      <trkpt lat="42.98603" lon="0.54265">
        <ele>1229.398</ele>
        <time>2011-04-10T11:19:34Z</time>
      </trkpt>
      <trkpt lat="42.98603" lon="0.54272">
        <ele>1227.349</ele>
        <time>2011-04-10T11:19:49Z</time>
      </trkpt>
      <trkpt lat="42.98602" lon="0.54293">
        <ele>1224.303</ele>
        <time>2011-04-10T11:20:03Z</time>
      </trkpt>
      <trkpt lat="42.986" lon="0.54307">
        <ele>1221.268</ele>
        <time>2011-04-10T11:20:16Z</time>
      </trkpt>
      <trkpt lat="42.986" lon="0.54325">
        <ele>1217.963</ele>
        <time>2011-04-10T11:20:30Z</time>
      </trkpt>
      <trkpt lat="42.98599" lon="0.54344">
        <ele>1214.959</ele>
        <time>2011-04-10T11:20:45Z</time>
      </trkpt>
      <trkpt lat="42.98598" lon="0.54362">
        <ele>1211.837</ele>
        <time>2011-04-10T11:20:58Z</time>
      </trkpt>
      <trkpt lat="42.98596" lon="0.54381">
        <ele>1208.495</ele>
        <time>2011-04-10T11:21:12Z</time>
      </trkpt>
      <trkpt lat="42.98596" lon="0.54382">
        <ele>1208.35</ele>
        <time>2011-04-10T11:21:13Z</time>
      </trkpt>
      <trkpt lat="42.9859" lon="0.54402">
        <ele>1205.037</ele>
        <time>2011-04-10T11:21:29Z</time>
      </trkpt>
      <trkpt lat="42.98582" lon="0.54414">
        <ele>1201.951</ele>
        <time>2011-04-10T11:21:45Z</time>
      </trkpt>
      <trkpt lat="42.98573" lon="0.54431">
        <ele>1198.594</ele>
        <time>2011-04-10T11:22:02Z</time>
      </trkpt>
      <trkpt lat="42.98566" lon="0.5444">
        <ele>1195.96</ele>
        <time>2011-04-10T11:22:19Z</time>
      </trkpt>
      <trkpt lat="42.98565" lon="0.54432">
        <ele>1195.7</ele>
        <time>2011-04-10T11:22:39Z</time>
      </trkpt>
      <trkpt lat="42.98567" lon="0.54434">
        <ele>1195.337</ele>
        <time>2011-04-10T11:23:10Z</time>
      </trkpt>
      <trkpt lat="42.98571" lon="0.54439">
        <ele>1194.567</ele>
        <time>2011-04-10T11:23:36Z</time>
      </trkpt>
      <trkpt lat="42.98569" lon="0.54438">
        <ele>1195.917</ele>
        <time>2011-04-10T11:24:09Z</time>
      </trkpt>
      <trkpt lat="42.98569" lon="0.54436">
        <ele>1196.365</ele>
        <time>2011-04-10T11:24:34Z</time>
      </trkpt>
      <trkpt lat="42.98569" lon="0.54433">
        <ele>1196.796</ele>
        <time>2011-04-10T11:24:53Z</time>
      </trkpt>
      <trkpt lat="42.98568" lon="0.54428">
        <ele>1196.613</ele>
        <time>2011-04-10T11:25:13Z</time>
      </trkpt>
      <trkpt lat="42.9857" lon="0.54428">
        <ele>1197.164</ele>
        <time>2011-04-10T11:25:46Z</time>
      </trkpt>
      <trkpt lat="42.98567" lon="0.54432">
        <ele>1195.781</ele>
        <time>2011-04-10T11:26:06Z</time>
      </trkpt>
      <trkpt lat="42.98557" lon="0.54442">
        <ele>1193.314</ele>
        <time>2011-04-10T11:26:19Z</time>
      </trkpt>
      <trkpt lat="42.98548" lon="0.54453">
        <ele>1190.098</ele>
        <time>2011-04-10T11:26:32Z</time>
      </trkpt>
      <trkpt lat="42.98536" lon="0.54463">
        <ele>1187.097</ele>
        <time>2011-04-10T11:26:48Z</time>
      </trkpt>
      <trkpt lat="42.98523" lon="0.54465">
        <ele>1183.928</ele>
        <time>2011-04-10T11:27:06Z</time>
      </trkpt>
      <trkpt lat="42.98512" lon="0.54465">
        <ele>1180.892</ele>
        <time>2011-04-10T11:27:21Z</time>
      </trkpt>
      <trkpt lat="42.985" lon="0.54465">
        <ele>1177.446</ele>
        <time>2011-04-10T11:27:38Z</time>
      </trkpt>
      <trkpt lat="42.98498" lon="0.54465">
        <ele>1177.07</ele>
        <time>2011-04-10T11:27:41Z</time>
      </trkpt>
      <trkpt lat="42.98486" lon="0.54481">
        <ele>1174.055</ele>
        <time>2011-04-10T11:27:59Z</time>
      </trkpt>
      <trkpt lat="42.98469" lon="0.54485">
        <ele>1170.785</ele>
        <time>2011-04-10T11:28:16Z</time>
      </trkpt>
      <trkpt lat="42.98459" lon="0.54482">
        <ele>1167.343</ele>
        <time>2011-04-10T11:28:31Z</time>
      </trkpt>
      <trkpt lat="42.98449" lon="0.54487">
        <ele>1163.989</ele>
        <time>2011-04-10T11:28:45Z</time>
      </trkpt>
      <trkpt lat="42.98448" lon="0.54498">
        <ele>1161.392</ele>
        <time>2011-04-10T11:28:59Z</time>
      </trkpt>
      <trkpt lat="42.98447" lon="0.54506">
        <ele>1160.52</ele>
        <time>2011-04-10T11:29:06Z</time>
      </trkpt>
      <trkpt lat="42.98441" lon="0.54521">
        <ele>1156.697</ele>
        <time>2011-04-10T11:29:22Z</time>
      </trkpt>
      <trkpt lat="42.98436" lon="0.54534">
        <ele>1153.411</ele>
        <time>2011-04-10T11:29:36Z</time>
      </trkpt>
      <trkpt lat="42.98427" lon="0.54548">
        <ele>1150.351</ele>
        <time>2011-04-10T11:29:50Z</time>
      </trkpt>
      <trkpt lat="42.98418" lon="0.54564">
        <ele>1146.949</ele>
        <time>2011-04-10T11:30:06Z</time>
      </trkpt>
      <trkpt lat="42.98417" lon="0.54565">
        <ele>1146.716</ele>
        <time>2011-04-10T11:30:07Z</time>
      </trkpt>
      <trkpt lat="42.98407" lon="0.54579">
        <ele>1143.155</ele>
        <time>2011-04-10T11:30:22Z</time>
      </trkpt>
      <trkpt lat="42.98403" lon="0.54585">
        <ele>1140.919</ele>
        <time>2011-04-10T11:30:32Z</time>
      </trkpt>
      <trkpt lat="42.98396" lon="0.54596">
        <ele>1137.897</ele>
        <time>2011-04-10T11:30:44Z</time>
      </trkpt>
      <trkpt lat="42.98388" lon="0.54608">
        <ele>1135.484</ele>
        <time>2011-04-10T11:30:57Z</time>
      </trkpt>
      <trkpt lat="42.98378" lon="0.54619">
        <ele>1132.626</ele>
        <time>2011-04-10T11:31:10Z</time>
      </trkpt>
      <trkpt lat="42.98371" lon="0.54633">
        <ele>1129.021</ele>
        <time>2011-04-10T11:31:23Z</time>
      </trkpt>
      <trkpt lat="42.98367" lon="0.5464">
        <ele>1127.337</ele>
        <time>2011-04-10T11:31:29Z</time>
      </trkpt>
      <trkpt lat="42.98358" lon="0.54653">
        <ele>1123.961</ele>
        <time>2011-04-10T11:31:44Z</time>
      </trkpt>
      <trkpt lat="42.98349" lon="0.54664">
        <ele>1120.944</ele>
        <time>2011-04-10T11:31:59Z</time>
      </trkpt>
      <trkpt lat="42.98341" lon="0.54673">
        <ele>1117.868</ele>
        <time>2011-04-10T11:32:12Z</time>
      </trkpt>
      <trkpt lat="42.98333" lon="0.54683">
        <ele>1114.847</ele>
        <time>2011-04-10T11:32:26Z</time>
      </trkpt>
      <trkpt lat="42.98323" lon="0.54696">
        <ele>1111.594</ele>
        <time>2011-04-10T11:32:41Z</time>
      </trkpt>
      <trkpt lat="42.98317" lon="0.54705">
        <ele>1108.46</ele>
        <time>2011-04-10T11:32:54Z</time>
      </trkpt>
      <trkpt lat="42.98308" lon="0.54723">
        <ele>1105.415</ele>
        <time>2011-04-10T11:33:10Z</time>
      </trkpt>
      <trkpt lat="42.98303" lon="0.54738">
        <ele>1102.139</ele>
        <time>2011-04-10T11:33:22Z</time>
      </trkpt>
      <trkpt lat="42.98295" lon="0.54753">
        <ele>1099.021</ele>
        <time>2011-04-10T11:33:37Z</time>
      </trkpt>
      <trkpt lat="42.98289" lon="0.54771">
        <ele>1095.54</ele>
        <time>2011-04-10T11:33:52Z</time>
      </trkpt>
      <trkpt lat="42.9828" lon="0.5479">
        <ele>1092.248</ele>
        <time>2011-04-10T11:34:10Z</time>
      </trkpt>
      <trkpt lat="42.98272" lon="0.54815">
        <ele>1089.983</ele>
        <time>2011-04-10T11:34:28Z</time>
      </trkpt>
      <trkpt lat="42.98262" lon="0.54832">
        <ele>1087.05</ele>
        <time>2011-04-10T11:34:46Z</time>
      </trkpt>
      <trkpt lat="42.9826" lon="0.5484">
        <ele>1085.511</ele>
        <time>2011-04-10T11:34:53Z</time>
      </trkpt>
      <trkpt lat="42.98257" lon="0.54848">
        <ele>1085.351</ele>
        <time>2011-04-10T11:35:14Z</time>
      </trkpt>
      <trkpt lat="42.98261" lon="0.5485">
        <ele>1084.516</ele>
        <time>2011-04-10T11:35:45Z</time>
      </trkpt>
      <trkpt lat="42.98277" lon="0.54852">
        <ele>1084.902</ele>
        <time>2011-04-10T11:36:16Z</time>
      </trkpt>
      <trkpt lat="42.98273" lon="0.54851">
        <ele>1085.438</ele>
        <time>2011-04-10T11:36:45Z</time>
      </trkpt>
      <trkpt lat="42.98268" lon="0.54849">
        <ele>1085.018</ele>
        <time>2011-04-10T11:37:15Z</time>
      </trkpt>
      <trkpt lat="42.98265" lon="0.54849">
        <ele>1084.972</ele>
        <time>2011-04-10T11:37:43Z</time>
      </trkpt>
      <trkpt lat="42.98255" lon="0.54845">
        <ele>1085.021</ele>
        <time>2011-04-10T11:38:05Z</time>
      </trkpt>
      <trkpt lat="42.98255" lon="0.54843">
        <ele>1085.505</ele>
        <time>2011-04-10T11:38:30Z</time>
      </trkpt>
      <trkpt lat="42.98255" lon="0.54843">
        <ele>1085.81</ele>
        <time>2011-04-10T11:38:41Z</time>
      </trkpt>
      <trkpt lat="42.98274" lon="0.54818">
        <ele>1085.249</ele>
        <time>2011-04-10T11:39:05Z</time>
      </trkpt>
      <trkpt lat="42.9829" lon="0.54796">
        <ele>1084.456</ele>
        <time>2011-04-10T11:39:28Z</time>
      </trkpt>
      <trkpt lat="42.98298" lon="0.548">
        <ele>1082.503</ele>
        <time>2011-04-10T11:39:46Z</time>
      </trkpt>
      <trkpt lat="42.98294" lon="0.54814">
        <ele>1080.768</ele>
        <time>2011-04-10T11:40:02Z</time>
      </trkpt>
      <trkpt lat="42.98288" lon="0.54833">
        <ele>1077.322</ele>
        <time>2011-04-10T11:40:20Z</time>
      </trkpt>
      <trkpt lat="42.98284" lon="0.54854">
        <ele>1074.218</ele>
        <time>2011-04-10T11:40:37Z</time>
      </trkpt>
      <trkpt lat="42.98286" lon="0.54855">
        <ele>1073.543</ele>
        <time>2011-04-10T11:40:39Z</time>
      </trkpt>
      <trkpt lat="42.98285" lon="0.54873">
        <ele>1071.599</ele>
        <time>2011-04-10T11:40:51Z</time>
      </trkpt>
      <trkpt lat="42.98285" lon="0.54892">
        <ele>1069.421</ele>
        <time>2011-04-10T11:41:08Z</time>
      </trkpt>
      <trkpt lat="42.98284" lon="0.54906">
        <ele>1067.022</ele>
        <time>2011-04-10T11:41:18Z</time>
      </trkpt>
      <trkpt lat="42.98279" lon="0.54928">
        <ele>1063.745</ele>
        <time>2011-04-10T11:41:34Z</time>
      </trkpt>
      <trkpt lat="42.98274" lon="0.54947">
        <ele>1060.676</ele>
        <time>2011-04-10T11:41:48Z</time>
      </trkpt>
      <trkpt lat="42.9827" lon="0.54953">
        <ele>1059.698</ele>
        <time>2011-04-10T11:41:55Z</time>
      </trkpt>
      <trkpt lat="42.98256" lon="0.54973">
        <ele>1056.203</ele>
        <time>2011-04-10T11:42:14Z</time>
      </trkpt>
      <trkpt lat="42.98243" lon="0.54981">
        <ele>1053.239</ele>
        <time>2011-04-10T11:42:31Z</time>
      </trkpt>
      <trkpt lat="42.98254" lon="0.54981">
        <ele>1050.808</ele>
        <time>2011-04-10T11:42:50Z</time>
      </trkpt>
      <trkpt lat="42.98263" lon="0.54976">
        <ele>1049.759</ele>
        <time>2011-04-10T11:43:02Z</time>
      </trkpt>
      <trkpt lat="42.98271" lon="0.54971">
        <ele>1047.584</ele>
        <time>2011-04-10T11:43:19Z</time>
      </trkpt>
      <trkpt lat="42.98287" lon="0.54959">
        <ele>1044.34</ele>
        <time>2011-04-10T11:43:38Z</time>
      </trkpt>
      <trkpt lat="42.98299" lon="0.54945">
        <ele>1041.165</ele>
        <time>2011-04-10T11:43:56Z</time>
      </trkpt>
      <trkpt lat="42.98312" lon="0.5493">
        <ele>1038.134</ele>
        <time>2011-04-10T11:44:15Z</time>
      </trkpt>
      <trkpt lat="42.9832" lon="0.5492">
        <ele>1034.815</ele>
        <time>2011-04-10T11:44:34Z</time>
      </trkpt>
      <trkpt lat="42.98327" lon="0.54916">
        <ele>1032.878</ele>
        <time>2011-04-10T11:44:42Z</time>
      </trkpt>
      <trkpt lat="42.98345" lon="0.54899">
        <ele>1031.512</ele>
        <time>2011-04-10T11:45:01Z</time>
      </trkpt>
      <trkpt lat="42.98359" lon="0.54886">
        <ele>1031.459</ele>
        <time>2011-04-10T11:45:21Z</time>
      </trkpt>
      <trkpt lat="42.9837" lon="0.54893">
        <ele>1028.072</ele>
        <time>2011-04-10T11:45:39Z</time>
      </trkpt>
      <trkpt lat="42.98381" lon="0.54897">
        <ele>1025.037</ele>
        <time>2011-04-10T11:45:55Z</time>
      </trkpt>
      <trkpt lat="42.98391" lon="0.54893">
        <ele>1024.208</ele>
        <time>2011-04-10T11:46:10Z</time>
      </trkpt>
      <trkpt lat="42.98415" lon="0.54885">
        <ele>1023.317</ele>
        <time>2011-04-10T11:46:29Z</time>
      </trkpt>
      <trkpt lat="42.98417" lon="0.54885">
        <ele>1023.319</ele>
        <time>2011-04-10T11:46:32Z</time>
      </trkpt>
      <trkpt lat="42.98431" lon="0.54889">
        <ele>1021.169</ele>
        <time>2011-04-10T11:46:44Z</time>
      </trkpt>
      <trkpt lat="42.9845" lon="0.54892">
        <ele>1020.156</ele>
        <time>2011-04-10T11:47:05Z</time>
      </trkpt>
      <trkpt lat="42.98451" lon="0.54891">
        <ele>1018.812</ele>
        <time>2011-04-10T11:47:27Z</time>
      </trkpt>
      <trkpt lat="42.98469" lon="0.5488">
        <ele>1018.094</ele>
        <time>2011-04-10T11:47:50Z</time>
      </trkpt>
      <trkpt lat="42.98477" lon="0.54882">
        <ele>1015.342</ele>
        <time>2011-04-10T11:48:08Z</time>
      </trkpt>
      <trkpt lat="42.98491" lon="0.54888">
        <ele>1012.332</ele>
        <time>2011-04-10T11:48:23Z</time>
      </trkpt>
      <trkpt lat="42.985" lon="0.54897">
        <ele>1010.04</ele>
        <time>2011-04-10T11:48:38Z</time>
      </trkpt>
      <trkpt lat="42.98509" lon="0.54907">
        <ele>1009.086</ele>
        <time>2011-04-10T11:48:54Z</time>
      </trkpt>
      <trkpt lat="42.98511" lon="0.54912">
        <ele>1005.484</ele>
        <time>2011-04-10T11:49:14Z</time>
      </trkpt>
      <trkpt lat="42.98507" lon="0.54916">
        <ele>1004.875</ele>
        <time>2011-04-10T11:49:31Z</time>
      </trkpt>
      <trkpt lat="42.98504" lon="0.54918">
        <ele>1004.684</ele>
        <time>2011-04-10T11:49:51Z</time>
      </trkpt>
      <trkpt lat="42.98502" lon="0.54918">
        <ele>1004.446</ele>
        <time>2011-04-10T11:50:22Z</time>
      </trkpt>
      <trkpt lat="42.98501" lon="0.54917">
        <ele>1004.002</ele>
        <time>2011-04-10T11:50:42Z</time>
      </trkpt>
      <trkpt lat="42.98493" lon="0.54924">
        <ele>1002.504</ele>
        <time>2011-04-10T11:51:04Z</time>
      </trkpt>
      <trkpt lat="42.98493" lon="0.54925">
        <ele>1002.355</ele>
        <time>2011-04-10T11:51:26Z</time>
      </trkpt>
      <trkpt lat="42.98489" lon="0.54941">
        <ele>999.906</ele>
        <time>2011-04-10T11:51:43Z</time>
      </trkpt>
      <trkpt lat="42.98485" lon="0.5495">
        <ele>997.821</ele>
        <time>2011-04-10T11:51:58Z</time>
      </trkpt>
      <trkpt lat="42.98471" lon="0.5497">
        <ele>994.521</ele>
        <time>2011-04-10T11:52:16Z</time>
      </trkpt>
      <trkpt lat="42.98466" lon="0.54981">
        <ele>991.393</ele>
        <time>2011-04-10T11:52:28Z</time>
      </trkpt>
      <trkpt lat="42.98456" lon="0.54998">
        <ele>987.774</ele>
        <time>2011-04-10T11:52:45Z</time>
      </trkpt>
      <trkpt lat="42.98451" lon="0.55007">
        <ele>984.653</ele>
        <time>2011-04-10T11:53:00Z</time>
      </trkpt>
      <trkpt lat="42.98442" lon="0.55017">
        <ele>981.49</ele>
        <time>2011-04-10T11:53:17Z</time>
      </trkpt>
      <trkpt lat="42.98438" lon="0.55022">
        <ele>980.775</ele>
        <time>2011-04-10T11:53:21Z</time>
      </trkpt>
      <trkpt lat="42.98432" lon="0.55033">
        <ele>977.798</ele>
        <time>2011-04-10T11:53:35Z</time>
      </trkpt>
      <trkpt lat="42.98431" lon="0.5505">
        <ele>974.749</ele>
        <time>2011-04-10T11:53:51Z</time>
      </trkpt>
      <trkpt lat="42.98427" lon="0.55058">
        <ele>972.078</ele>
        <time>2011-04-10T11:54:06Z</time>
      </trkpt>
      <trkpt lat="42.98423" lon="0.55058">
        <ele>971.804</ele>
        <time>2011-04-10T11:54:32Z</time>
      </trkpt>
      <trkpt lat="42.98425" lon="0.55053">
        <ele>970.872</ele>
        <time>2011-04-10T11:54:55Z</time>
      </trkpt>
      <trkpt lat="42.98429" lon="0.55046">
        <ele>971.406</ele>
        <time>2011-04-10T11:55:21Z</time>
      </trkpt>
      <trkpt lat="42.98428" lon="0.55048">
        <ele>971.089</ele>
        <time>2011-04-10T11:55:44Z</time>
      </trkpt>
      <trkpt lat="42.98424" lon="0.55049">
        <ele>972.082</ele>
        <time>2011-04-10T11:56:10Z</time>
      </trkpt>
      <trkpt lat="42.98426" lon="0.55053">
        <ele>969.997</ele>
        <time>2011-04-10T11:56:38Z</time>
      </trkpt>
      <trkpt lat="42.98423" lon="0.55074">
        <ele>966.846</ele>
        <time>2011-04-10T11:56:56Z</time>
      </trkpt>
      <trkpt lat="42.9842" lon="0.55088">
        <ele>963.708</ele>
        <time>2011-04-10T11:57:14Z</time>
      </trkpt>
      <trkpt lat="42.98419" lon="0.55097">
        <ele>961.789</ele>
        <time>2011-04-10T11:57:27Z</time>
      </trkpt>
      <trkpt lat="42.98414" lon="0.55112">
        <ele>959.25</ele>
        <time>2011-04-10T11:57:42Z</time>
      </trkpt>
      <trkpt lat="42.98405" lon="0.5513">
        <ele>956.13</ele>
        <time>2011-04-10T11:57:58Z</time>
      </trkpt>
      <trkpt lat="42.98398" lon="0.55145">
        <ele>954.209</ele>
        <time>2011-04-10T11:58:13Z</time>
      </trkpt>
      <trkpt lat="42.98383" lon="0.55163">
        <ele>951.333</ele>
        <time>2011-04-10T11:58:30Z</time>
      </trkpt>
      <trkpt lat="42.98372" lon="0.55167">
        <ele>948.636</ele>
        <time>2011-04-10T11:58:52Z</time>
      </trkpt>
      <trkpt lat="42.98368" lon="0.55176">
        <ele>946.463</ele>
        <time>2011-04-10T11:59:11Z</time>
      </trkpt>
      <trkpt lat="42.98353" lon="0.55186">
        <ele>943.422</ele>
        <time>2011-04-10T11:59:29Z</time>
      </trkpt>
      <trkpt lat="42.98342" lon="0.55194">
        <ele>941.141</ele>
        <time>2011-04-10T11:59:49Z</time>
      </trkpt>
      <trkpt lat="42.98329" lon="0.55206">
        <ele>938.257</ele>
        <time>2011-04-10T12:00:09Z</time>
      </trkpt>
      <trkpt lat="42.98319" lon="0.55219">
        <ele>935.092</ele>
        <time>2011-04-10T12:00:32Z</time>
      </trkpt>
      <trkpt lat="42.98315" lon="0.55235">
        <ele>931.665</ele>
        <time>2011-04-10T12:00:48Z</time>
      </trkpt>
      <trkpt lat="42.98313" lon="0.55257">
        <ele>928.548</ele>
        <time>2011-04-10T12:01:03Z</time>
      </trkpt>
      <trkpt lat="42.98308" lon="0.55264">
        <ele>927.498</ele>
        <time>2011-04-10T12:01:24Z</time>
      </trkpt>
      <trkpt lat="42.98302" lon="0.55275">
        <ele>924.236</ele>
        <time>2011-04-10T12:01:37Z</time>
      </trkpt>
      <trkpt lat="42.98293" lon="0.55293">
        <ele>921.162</ele>
        <time>2011-04-10T12:01:51Z</time>
      </trkpt>
      <trkpt lat="42.98284" lon="0.55308">
        <ele>917.881</ele>
        <time>2011-04-10T12:02:06Z</time>
      </trkpt>
      <trkpt lat="42.98283" lon="0.5531">
        <ele>917.262</ele>
        <time>2011-04-10T12:02:10Z</time>
      </trkpt>
      <trkpt lat="42.98278" lon="0.55322">
        <ele>914.151</ele>
        <time>2011-04-10T12:02:28Z</time>
      </trkpt>
      <trkpt lat="42.98274" lon="0.55327">
        <ele>912.225</ele>
        <time>2011-04-10T12:02:40Z</time>
      </trkpt>
      <trkpt lat="42.98271" lon="0.55332">
        <ele>910.618</ele>
        <time>2011-04-10T12:02:45Z</time>
      </trkpt>
      <trkpt lat="42.98269" lon="0.55341">
        <ele>907.151</ele>
        <time>2011-04-10T12:02:57Z</time>
      </trkpt>
      <trkpt lat="42.98264" lon="0.55352">
        <ele>903.903</ele>
        <time>2011-04-10T12:03:09Z</time>
      </trkpt>
      <trkpt lat="42.98259" lon="0.55363">
        <ele>900.891</ele>
        <time>2011-04-10T12:03:22Z</time>
      </trkpt>
      <trkpt lat="42.98251" lon="0.55375">
        <ele>897.79</ele>
        <time>2011-04-10T12:03:35Z</time>
      </trkpt>
      <trkpt lat="42.98244" lon="0.55385">
        <ele>894.731</ele>
        <time>2011-04-10T12:03:48Z</time>
      </trkpt>
      <trkpt lat="42.9824" lon="0.55394">
        <ele>893.237</ele>
        <time>2011-04-10T12:03:56Z</time>
      </trkpt>
      <trkpt lat="42.9823" lon="0.55409">
        <ele>890.04</ele>
        <time>2011-04-10T12:04:15Z</time>
      </trkpt>
      <trkpt lat="42.98223" lon="0.55424">
        <ele>887.203</ele>
        <time>2011-04-10T12:04:33Z</time>
      </trkpt>
      <trkpt lat="42.9822" lon="0.55435">
        <ele>884.049</ele>
        <time>2011-04-10T12:04:44Z</time>
      </trkpt>
      <trkpt lat="42.98212" lon="0.55446">
        <ele>880.752</ele>
        <time>2011-04-10T12:04:59Z</time>
      </trkpt>
      <trkpt lat="42.98208" lon="0.55455">
        <ele>877.652</ele>
        <time>2011-04-10T12:05:10Z</time>
      </trkpt>
      <trkpt lat="42.98206" lon="0.55464">
        <ele>876.413</ele>
        <time>2011-04-10T12:05:17Z</time>
      </trkpt>
      <trkpt lat="42.982" lon="0.55471">
        <ele>874.681</ele>
        <time>2011-04-10T12:05:28Z</time>
      </trkpt>
      <trkpt lat="42.98195" lon="0.55485">
        <ele>871.199</ele>
        <time>2011-04-10T12:05:41Z</time>
      </trkpt>
      <trkpt lat="42.98188" lon="0.55499">
        <ele>868.197</ele>
        <time>2011-04-10T12:05:57Z</time>
      </trkpt>
      <trkpt lat="42.98188" lon="0.555">
        <ele>867.565</ele>
        <time>2011-04-10T12:06:11Z</time>
      </trkpt>
      <trkpt lat="42.98187" lon="0.555">
        <ele>866.737</ele>
        <time>2011-04-10T12:06:33Z</time>
      </trkpt>
      <trkpt lat="42.98186" lon="0.55502">
        <ele>866.367</ele>
        <time>2011-04-10T12:06:58Z</time>
      </trkpt>
      <trkpt lat="42.98184" lon="0.55506">
        <ele>866.304</ele>
        <time>2011-04-10T12:07:24Z</time>
      </trkpt>
      <trkpt lat="42.98182" lon="0.5551">
        <ele>866.737</ele>
        <time>2011-04-10T12:07:52Z</time>
      </trkpt>
      <trkpt lat="42.98173" lon="0.55531">
        <ele>863.92</ele>
        <time>2011-04-10T12:08:12Z</time>
      </trkpt>
      <trkpt lat="42.98174" lon="0.55547">
        <ele>860.357</ele>
        <time>2011-04-10T12:08:29Z</time>
      </trkpt>
      <trkpt lat="42.98174" lon="0.55548">
        <ele>860.563</ele>
        <time>2011-04-10T12:08:30Z</time>
      </trkpt>
      <trkpt lat="42.98167" lon="0.55564">
        <ele>857.447</ele>
        <time>2011-04-10T12:08:47Z</time>
      </trkpt>
      <trkpt lat="42.98165" lon="0.55574">
        <ele>854.31</ele>
        <time>2011-04-10T12:08:58Z</time>
      </trkpt>
      <trkpt lat="42.98161" lon="0.55587">
        <ele>851.14</ele>
        <time>2011-04-10T12:09:10Z</time>
      </trkpt>
      <trkpt lat="42.98155" lon="0.55601">
        <ele>847.857</ele>
        <time>2011-04-10T12:09:23Z</time>
      </trkpt>
      <trkpt lat="42.98152" lon="0.55615">
        <ele>844.844</ele>
        <time>2011-04-10T12:09:35Z</time>
      </trkpt>
      <trkpt lat="42.98147" lon="0.55629">
        <ele>841.785</ele>
        <time>2011-04-10T12:09:46Z</time>
      </trkpt>
      <trkpt lat="42.98137" lon="0.55651">
        <ele>838.107</ele>
        <time>2011-04-10T12:10:00Z</time>
      </trkpt>
      <trkpt lat="42.98134" lon="0.55662">
        <ele>837.772</ele>
        <time>2011-04-10T12:10:07Z</time>
      </trkpt>
      <trkpt lat="42.98131" lon="0.55684">
        <ele>833.595</ele>
        <time>2011-04-10T12:10:23Z</time>
      </trkpt>
      <trkpt lat="42.98129" lon="0.55694">
        <ele>830.333</ele>
        <time>2011-04-10T12:10:36Z</time>
      </trkpt>
      <trkpt lat="42.98129" lon="0.55702">
        <ele>829.117</ele>
        <time>2011-04-10T12:10:41Z</time>
      </trkpt>
      <trkpt lat="42.98124" lon="0.55716">
        <ele>825.949</ele>
        <time>2011-04-10T12:10:53Z</time>
      </trkpt>
      <trkpt lat="42.9812" lon="0.55736">
        <ele>822.815</ele>
        <time>2011-04-10T12:11:08Z</time>
      </trkpt>
      <trkpt lat="42.98115" lon="0.55755">
        <ele>819.981</ele>
        <time>2011-04-10T12:11:24Z</time>
      </trkpt>
      <trkpt lat="42.98112" lon="0.55779">
        <ele>816.749</ele>
        <time>2011-04-10T12:11:39Z</time>
      </trkpt>
      <trkpt lat="42.98105" lon="0.55802">
        <ele>813.529</ele>
        <time>2011-04-10T12:11:55Z</time>
      </trkpt>
      <trkpt lat="42.981" lon="0.5582">
        <ele>810.018</ele>
        <time>2011-04-10T12:12:09Z</time>
      </trkpt>
      <trkpt lat="42.98095" lon="0.55848">
        <ele>806.959</ele>
        <time>2011-04-10T12:12:28Z</time>
      </trkpt>
      <trkpt lat="42.98091" lon="0.55861">
        <ele>803.761</ele>
        <time>2011-04-10T12:12:43Z</time>
      </trkpt>
      <trkpt lat="42.98088" lon="0.55869">
        <ele>802.594</ele>
        <time>2011-04-10T12:12:50Z</time>
      </trkpt>
      <trkpt lat="42.98082" lon="0.55885">
        <ele>799.781</ele>
        <time>2011-04-10T12:13:03Z</time>
      </trkpt>
      <trkpt lat="42.98075" lon="0.55904">
        <ele>797.308</ele>
        <time>2011-04-10T12:13:20Z</time>
      </trkpt>
      <trkpt lat="42.98075" lon="0.55906">
        <ele>796.642</ele>
        <time>2011-04-10T12:13:22Z</time>
      </trkpt>
      <trkpt lat="42.98067" lon="0.55938">
        <ele>793.786</ele>
        <time>2011-04-10T12:13:41Z</time>
      </trkpt>
      <trkpt lat="42.98064" lon="0.55947">
        <ele>792.816</ele>
        <time>2011-04-10T12:13:48Z</time>
      </trkpt>
      <trkpt lat="42.98054" lon="0.55963">
        <ele>792.98</ele>
        <time>2011-04-10T12:14:08Z</time>
      </trkpt>
      <trkpt lat="42.98054" lon="0.55963">
        <ele>792.616</ele>
        <time>2011-04-10T12:14:35Z</time>
      </trkpt>
      <trkpt lat="42.98053" lon="0.5597">
        <ele>792.696</ele>
        <time>2011-04-10T12:14:55Z</time>
      </trkpt>
      <trkpt lat="42.9805" lon="0.55973">
        <ele>792.281</ele>
        <time>2011-04-10T12:15:36Z</time>
      </trkpt>
      <trkpt lat="42.98048" lon="0.55975">
        <ele>792.461</ele>
        <time>2011-04-10T12:16:01Z</time>
      </trkpt>
      <trkpt lat="42.98047" lon="0.55974">
        <ele>791.987</ele>
        <time>2011-04-10T12:16:35Z</time>
      </trkpt>
      <trkpt lat="42.98048" lon="0.55972">
        <ele>792.039</ele>
        <time>2011-04-10T12:17:04Z</time>
      </trkpt>
      <trkpt lat="42.98049" lon="0.55977">
        <ele>791.782</ele>
        <time>2011-04-10T12:17:24Z</time>
      </trkpt>
      <trkpt lat="42.98042" lon="0.55997">
        <ele>789.914</ele>
        <time>2011-04-10T12:17:45Z</time>
      </trkpt>
      <trkpt lat="42.98032" lon="0.56017">
        <ele>787.047</ele>
        <time>2011-04-10T12:18:05Z</time>
      </trkpt>
      <trkpt lat="42.98026" lon="0.56043">
        <ele>784.54</ele>
        <time>2011-04-10T12:18:22Z</time>
      </trkpt>
      <trkpt lat="42.98023" lon="0.56061">
        <ele>781.319</ele>
        <time>2011-04-10T12:18:35Z</time>
      </trkpt>
      <trkpt lat="42.98023" lon="0.56075">
        <ele>777.635</ele>
        <time>2011-04-10T12:18:48Z</time>
      </trkpt>
      <trkpt lat="42.98023" lon="0.56084">
        <ele>775.161</ele>
        <time>2011-04-10T12:18:59Z</time>
      </trkpt>
      <trkpt lat="42.98023" lon="0.56094">
        <ele>772.132</ele>
        <time>2011-04-10T12:19:10Z</time>
      </trkpt>
      <trkpt lat="42.98027" lon="0.56107">
        <ele>769.584</ele>
        <time>2011-04-10T12:19:20Z</time>
      </trkpt>
      <trkpt lat="42.9803" lon="0.56125">
        <ele>767.104</ele>
        <time>2011-04-10T12:19:32Z</time>
      </trkpt>
      <trkpt lat="42.98026" lon="0.56139">
        <ele>764.176</ele>
        <time>2011-04-10T12:19:43Z</time>
      </trkpt>
      <trkpt lat="42.98029" lon="0.56161">
        <ele>760.901</ele>
        <time>2011-04-10T12:19:59Z</time>
      </trkpt>
      <trkpt lat="42.98028" lon="0.56175">
        <ele>758.809</ele>
        <time>2011-04-10T12:20:11Z</time>
      </trkpt>
      <trkpt lat="42.98026" lon="0.56194">
        <ele>755.779</ele>
        <time>2011-04-10T12:20:24Z</time>
      </trkpt>
      <trkpt lat="42.98026" lon="0.56199">
        <ele>755.343</ele>
        <time>2011-04-10T12:20:28Z</time>
      </trkpt>
      <trkpt lat="42.98021" lon="0.56205">
        <ele>754.042</ele>
        <time>2011-04-10T12:20:34Z</time>
      </trkpt>
      <trkpt lat="42.9802" lon="0.56209">
        <ele>753.902</ele>
        <time>2011-04-10T12:20:36Z</time>
      </trkpt>
      <trkpt lat="42.98025" lon="0.56235">
        <ele>750.742</ele>
        <time>2011-04-10T12:20:53Z</time>
      </trkpt>
      <trkpt lat="42.98023" lon="0.56235">
        <ele>749.715</ele>
        <time>2011-04-10T12:21:13Z</time>
      </trkpt>
      <trkpt lat="42.98022" lon="0.56225">
        <ele>749.758</ele>
        <time>2011-04-10T12:22:18Z</time>
      </trkpt>
      <trkpt lat="42.9802" lon="0.56221">
        <ele>750.447</ele>
        <time>2011-04-10T12:22:50Z</time>
      </trkpt>
      <trkpt lat="42.98021" lon="0.5622">
        <ele>750.645</ele>
        <time>2011-04-10T12:22:52Z</time>
      </trkpt>
      <trkpt lat="42.98036" lon="0.56208">
        <ele>746.662</ele>
        <time>2011-04-10T12:23:04Z</time>
      </trkpt>
      <trkpt lat="42.98042" lon="0.56205">
        <ele>745.484</ele>
        <time>2011-04-10T12:23:08Z</time>
      </trkpt>
      <trkpt lat="42.9805" lon="0.562">
        <ele>743.514</ele>
        <time>2011-04-10T12:23:14Z</time>
      </trkpt>
      <trkpt lat="42.98063" lon="0.56195">
        <ele>740.119</ele>
        <time>2011-04-10T12:23:26Z</time>
      </trkpt>
      <trkpt lat="42.98064" lon="0.56195">
        <ele>739.816</ele>
        <time>2011-04-10T12:23:27Z</time>
      </trkpt>
      <trkpt lat="42.98072" lon="0.56189">
        <ele>736.668</ele>
        <time>2011-04-10T12:23:35Z</time>
      </trkpt>
      <trkpt lat="42.98072" lon="0.56187">
        <ele>736.464</ele>
        <time>2011-04-10T12:23:36Z</time>
      </trkpt>
      <trkpt lat="42.98081" lon="0.56178">
        <ele>733.359</ele>
        <time>2011-04-10T12:23:45Z</time>
      </trkpt>
      <trkpt lat="42.98084" lon="0.56177">
        <ele>731.94</ele>
        <time>2011-04-10T12:23:48Z</time>
      </trkpt>
      <trkpt lat="42.98091" lon="0.56169">
        <ele>728.761</ele>
        <time>2011-04-10T12:23:57Z</time>
      </trkpt>
      <trkpt lat="42.98098" lon="0.56161">
        <ele>726.486</ele>
        <time>2011-04-10T12:24:03Z</time>
      </trkpt>
      <trkpt lat="42.9811" lon="0.56145">
        <ele>723.454</ele>
        <time>2011-04-10T12:24:16Z</time>
      </trkpt>
      <trkpt lat="42.98123" lon="0.56137">
        <ele>720.386</ele>
        <time>2011-04-10T12:24:25Z</time>
      </trkpt>
      <trkpt lat="42.98136" lon="0.5612">
        <ele>717.229</ele>
        <time>2011-04-10T12:24:40Z</time>
      </trkpt>
      <trkpt lat="42.98143" lon="0.56113">
        <ele>714.095</ele>
        <time>2011-04-10T12:24:48Z</time>
      </trkpt>
      <trkpt lat="42.98157" lon="0.56103">
        <ele>711.065</ele>
        <time>2011-04-10T12:25:02Z</time>
      </trkpt>
      <trkpt lat="42.9817" lon="0.56086">
        <ele>708.045</ele>
        <time>2011-04-10T12:25:15Z</time>
      </trkpt>
      <trkpt lat="42.9818" lon="0.56077">
        <ele>706.662</ele>
        <time>2011-04-10T12:25:25Z</time>
      </trkpt>
      <trkpt lat="42.98186" lon="0.56068">
        <ele>705.099</ele>
        <time>2011-04-10T12:25:33Z</time>
      </trkpt>
      <trkpt lat="42.98207" lon="0.56043">
        <ele>702.85</ele>
        <time>2011-04-10T12:25:55Z</time>
      </trkpt>
      <trkpt lat="42.9821" lon="0.56039">
        <ele>701.063</ele>
        <time>2011-04-10T12:26:11Z</time>
      </trkpt>
      <trkpt lat="42.98216" lon="0.56035">
        <ele>699.54</ele>
        <time>2011-04-10T12:26:18Z</time>
      </trkpt>
      <trkpt lat="42.98234" lon="0.56012">
        <ele>696.752</ele>
        <time>2011-04-10T12:26:40Z</time>
      </trkpt>
      <trkpt lat="42.98253" lon="0.55984">
        <ele>694.316</ele>
        <time>2011-04-10T12:27:02Z</time>
      </trkpt>
      <trkpt lat="42.98271" lon="0.5596">
        <ele>692.175</ele>
        <time>2011-04-10T12:27:23Z</time>
      </trkpt>
      <trkpt lat="42.98276" lon="0.5595">
        <ele>690.223</ele>
        <time>2011-04-10T12:27:34Z</time>
      </trkpt>
      <trkpt lat="42.98294" lon="0.55929">
        <ele>687.972</ele>
        <time>2011-04-10T12:27:56Z</time>
      </trkpt>
      <trkpt lat="42.98304" lon="0.55917">
        <ele>686.358</ele>
        <time>2011-04-10T12:28:16Z</time>
      </trkpt>
      <trkpt lat="42.98309" lon="0.559">
        <ele>683.656</ele>
        <time>2011-04-10T12:28:37Z</time>
      </trkpt>
      <trkpt lat="42.9832" lon="0.559">
        <ele>680.53</ele>
        <time>2011-04-10T12:28:54Z</time>
      </trkpt>
      <trkpt lat="42.98316" lon="0.55915">
        <ele>677.321</ele>
        <time>2011-04-10T12:29:12Z</time>
      </trkpt>
      <trkpt lat="42.98316" lon="0.55931">
        <ele>674.534</ele>
        <time>2011-04-10T12:29:28Z</time>
      </trkpt>
      <trkpt lat="42.98319" lon="0.55942">
        <ele>670.964</ele>
        <time>2011-04-10T12:29:43Z</time>
      </trkpt>
      <trkpt lat="42.98314" lon="0.55961">
        <ele>669.264</ele>
        <time>2011-04-10T12:30:00Z</time>
      </trkpt>
      <trkpt lat="42.98312" lon="0.55973">
        <ele>666.096</ele>
        <time>2011-04-10T12:30:17Z</time>
      </trkpt>
      <trkpt lat="42.98312" lon="0.55987">
        <ele>663.036</ele>
        <time>2011-04-10T12:30:30Z</time>
      </trkpt>
      <trkpt lat="42.98306" lon="0.56">
        <ele>659.945</ele>
        <time>2011-04-10T12:30:48Z</time>
      </trkpt>
      <trkpt lat="42.98301" lon="0.5602">
        <ele>656.847</ele>
        <time>2011-04-10T12:31:08Z</time>
      </trkpt>
      <trkpt lat="42.98299" lon="0.56037">
        <ele>653.836</ele>
        <time>2011-04-10T12:31:27Z</time>
      </trkpt>
      <trkpt lat="42.98297" lon="0.56054">
        <ele>650.766</ele>
        <time>2011-04-10T12:31:44Z</time>
      </trkpt>
      <trkpt lat="42.9829" lon="0.5608">
        <ele>648.143</ele>
        <time>2011-04-10T12:32:08Z</time>
      </trkpt>
      <trkpt lat="42.9828" lon="0.56102">
        <ele>645.084</ele>
        <time>2011-04-10T12:32:33Z</time>
      </trkpt>
      <trkpt lat="42.98278" lon="0.56128">
        <ele>642.38</ele>
        <time>2011-04-10T12:32:53Z</time>
      </trkpt>
      <trkpt lat="42.98273" lon="0.56144">
        <ele>640.997</ele>
        <time>2011-04-10T12:33:06Z</time>
      </trkpt>
      <trkpt lat="42.98268" lon="0.56174">
        <ele>640.655</ele>
        <time>2011-04-10T12:33:24Z</time>
      </trkpt>
      <trkpt lat="42.98259" lon="0.56194">
        <ele>641.639</ele>
        <time>2011-04-10T12:33:42Z</time>
      </trkpt>
      <trkpt lat="42.98257" lon="0.56211">
        <ele>639.078</ele>
        <time>2011-04-10T12:34:00Z</time>
      </trkpt>
      <trkpt lat="42.98256" lon="0.56232">
        <ele>635.897</ele>
        <time>2011-04-10T12:34:16Z</time>
      </trkpt>
      <trkpt lat="42.98265" lon="0.56252">
        <ele>632.777</ele>
        <time>2011-04-10T12:34:37Z</time>
      </trkpt>
      <trkpt lat="42.98271" lon="0.56273">
        <ele>629.817</ele>
        <time>2011-04-10T12:35:02Z</time>
      </trkpt>
      <trkpt lat="42.98273" lon="0.56296">
        <ele>628.381</ele>
        <time>2011-04-10T12:35:22Z</time>
      </trkpt>
      <trkpt lat="42.98269" lon="0.5632">
        <ele>626.973</ele>
        <time>2011-04-10T12:35:45Z</time>
      </trkpt>
      <trkpt lat="42.98266" lon="0.56345">
        <ele>625.463</ele>
        <time>2011-04-10T12:36:12Z</time>
      </trkpt>
      <trkpt lat="42.98261" lon="0.56356">
        <ele>625.449</ele>
        <time>2011-04-10T12:36:21Z</time>
      </trkpt>
      <trkpt lat="42.98252" lon="0.56395">
        <ele>624.004</ele>
        <time>2011-04-10T12:36:49Z</time>
      </trkpt>
      <trkpt lat="42.98253" lon="0.56395">
        <ele>622.725</ele>
        <time>2011-04-10T12:36:51Z</time>
      </trkpt>
      <trkpt lat="42.98253" lon="0.564">
        <ele>622.147</ele>
        <time>2011-04-10T12:36:58Z</time>
      </trkpt>
      <trkpt lat="42.98257" lon="0.56405">
        <ele>622.513</ele>
        <time>2011-04-10T12:37:17Z</time>
      </trkpt>
      <trkpt lat="42.98257" lon="0.56406">
        <ele>623.07</ele>
        <time>2011-04-10T12:37:41Z</time>
      </trkpt>
      <trkpt lat="42.98257" lon="0.56409">
        <ele>621.721</ele>
        <time>2011-04-10T12:38:14Z</time>
      </trkpt>
      <trkpt lat="42.98277" lon="0.56415">
        <ele>621.275</ele>
        <time>2011-04-10T12:38:39Z</time>
      </trkpt>
      <trkpt lat="42.98291" lon="0.5641">
        <ele>621.649</ele>
        <time>2011-04-10T12:38:55Z</time>
      </trkpt>
      <trkpt lat="42.98305" lon="0.56391">
        <ele>623.1</ele>
        <time>2011-04-10T12:39:14Z</time>
      </trkpt>
      <trkpt lat="42.98315" lon="0.56389">
        <ele>624.098</ele>
        <time>2011-04-10T12:39:27Z</time>
      </trkpt>
      <trkpt lat="42.98338" lon="0.56372">
        <ele>622.167</ele>
        <time>2011-04-10T12:39:51Z</time>
      </trkpt>
      <trkpt lat="42.98347" lon="0.56366">
        <ele>621.227</ele>
        <time>2011-04-10T12:39:59Z</time>
      </trkpt>
      <trkpt lat="42.98371" lon="0.56354">
        <ele>621.09</ele>
        <time>2011-04-10T12:40:21Z</time>
      </trkpt>
      <trkpt lat="42.98399" lon="0.56341">
        <ele>621.872</ele>
        <time>2011-04-10T12:40:46Z</time>
      </trkpt>
      <trkpt lat="42.98422" lon="0.56326">
        <ele>620.574</ele>
        <time>2011-04-10T12:41:07Z</time>
      </trkpt>
      <trkpt lat="42.98446" lon="0.56311">
        <ele>619.661</ele>
        <time>2011-04-10T12:41:28Z</time>
      </trkpt>
      <trkpt lat="42.98462" lon="0.56295">
        <ele>617.248</ele>
        <time>2011-04-10T12:41:46Z</time>
      </trkpt>
      <trkpt lat="42.98493" lon="0.56289">
        <ele>617.217</ele>
        <time>2011-04-10T12:42:11Z</time>
      </trkpt>
      <trkpt lat="42.98514" lon="0.56298">
        <ele>615.308</ele>
        <time>2011-04-10T12:42:31Z</time>
      </trkpt>
      <trkpt lat="42.98544" lon="0.56299">
        <ele>612.391</ele>
        <time>2011-04-10T12:42:55Z</time>
      </trkpt>
      <trkpt lat="42.98564" lon="0.56293">
        <ele>611.986</ele>
        <time>2011-04-10T12:43:11Z</time>
      </trkpt>
      <trkpt lat="42.98593" lon="0.56289">
        <ele>611.042</ele>
        <time>2011-04-10T12:43:35Z</time>
      </trkpt>
      <trkpt lat="42.98615" lon="0.56295">
        <ele>611.154</ele>
        <time>2011-04-10T12:43:55Z</time>
      </trkpt>
      <trkpt lat="42.98621" lon="0.56299">
        <ele>610.728</ele>
        <time>2011-04-10T12:44:15Z</time>
      </trkpt>
      <trkpt lat="42.98622" lon="0.56298">
        <ele>609.874</ele>
        <time>2011-04-10T12:44:44Z</time>
      </trkpt>
      <trkpt lat="42.98626" lon="0.56298">
        <ele>610.727</ele>
        <time>2011-04-10T12:45:05Z</time>
      </trkpt>
      <trkpt lat="42.98635" lon="0.563">
        <ele>609.943</ele>
        <time>2011-04-10T12:45:27Z</time>
      </trkpt>
      <trkpt lat="42.98648" lon="0.56301">
        <ele>609.455</ele>
        <time>2011-04-10T12:45:47Z</time>
      </trkpt>
      <trkpt lat="42.98672" lon="0.56308">
        <ele>606.513</ele>
        <time>2011-04-10T12:46:17Z</time>
      </trkpt>
      <trkpt lat="42.9869" lon="0.56302">
        <ele>605.37</ele>
        <time>2011-04-10T12:46:36Z</time>
      </trkpt>
      <trkpt lat="42.98708" lon="0.56308">
        <ele>604.956</ele>
        <time>2011-04-10T12:46:57Z</time>
      </trkpt>
      <trkpt lat="42.98707" lon="0.56303">
        <ele>605.496</ele>
        <time>2011-04-10T12:47:09Z</time>
      </trkpt>
      <trkpt lat="42.98713" lon="0.56306">
        <ele>605.829</ele>
        <time>2011-04-10T12:47:26Z</time>
      </trkpt>
      <trkpt lat="42.98726" lon="0.56323">
        <ele>605.996</ele>
        <time>2011-04-10T12:47:45Z</time>
      </trkpt>
      <trkpt lat="42.98736" lon="0.56337">
        <ele>606.015</ele>
        <time>2011-04-10T12:48:00Z</time>
      </trkpt>
      <trkpt lat="42.98745" lon="0.56351">
        <ele>605.638</ele>
        <time>2011-04-10T12:48:15Z</time>
      </trkpt>
      <trkpt lat="42.98755" lon="0.56369">
        <ele>606.065</ele>
        <time>2011-04-10T12:48:33Z</time>
      </trkpt>
      <trkpt lat="42.98761" lon="0.56372">
        <ele>605.851</ele>
        <time>2011-04-10T12:48:38Z</time>
      </trkpt>
      <trkpt lat="42.9877" lon="0.5639">
        <ele>604.622</ele>
        <time>2011-04-10T12:48:58Z</time>
      </trkpt>
      <trkpt lat="42.98771" lon="0.56394">
        <ele>604.833</ele>
        <time>2011-04-10T12:49:16Z</time>
      </trkpt>
      <trkpt lat="42.98771" lon="0.56394">
        <ele>604.675</ele>
        <time>2011-04-10T12:49:20Z</time>
      </trkpt>
    </trkseg>
  </trk>
</gpx>